<?xml version='1.0' encoding='UTF-8'?>
<gpx version="1.1" creator="https://www.komoot.de" xmlns="http://www.topografix.com/GPX/1/1" xmlns:xsi="http://www.w3.org/2001/XMLSchema-instance" xsi:schemaLocation="http://www.topografix.com/GPX/1/1 http://www.topografix.com/GPX/1/1/gpx.xsd">
  <metadata>
    <name>Matelica-Fabriano verso Area Archeologica di Attidium</name>
    <author>
      <link href="https://www.komoot.de">
        <text>komoot</text>
        <type>text/html</type>
      </link>
    </author>
  </metadata>
  <trk>
    <name>Matelica-Fabriano verso Area Archeologica di Attidium</name>
    <trkseg>
      <trkpt lat="43.252371" lon="13.006172">
        <ele>361.247792</ele>
        <time>2022-02-14T09:17:07.580Z</time>
      </trkpt>
      <trkpt lat="43.252666" lon="13.007029">
        <ele>361.247792</ele>
        <time>2022-02-14T09:17:25.539Z</time>
      </trkpt>
      <trkpt lat="43.252371" lon="13.006172">
        <ele>361.762994</ele>
        <time>2022-02-14T09:17:43.789Z</time>
      </trkpt>
      <trkpt lat="43.252260" lon="13.005850">
        <ele>362.040650</ele>
        <time>2022-02-14T09:17:51.259Z</time>
      </trkpt>
      <trkpt lat="43.252034" lon="13.005217">
        <ele>362.590095</ele>
        <time>2022-02-14T09:18:05.666Z</time>
      </trkpt>
      <trkpt lat="43.251885" lon="13.005078">
        <ele>362.782863</ele>
        <time>2022-02-14T09:18:11.602Z</time>
      </trkpt>
      <trkpt lat="43.251063" lon="13.004997">
        <ele>363.676709</ele>
        <time>2022-02-14T09:18:36.870Z</time>
      </trkpt>
      <trkpt lat="43.250940" lon="13.005056">
        <ele>363.819522</ele>
        <time>2022-02-14T09:18:40.188Z</time>
      </trkpt>
      <trkpt lat="43.250800" lon="13.005228">
        <ele>364.025446</ele>
        <time>2022-02-14T09:18:45.911Z</time>
      </trkpt>
      <trkpt lat="43.250759" lon="13.005194">
        <ele>364.077948</ele>
        <time>2022-02-14T09:18:47.146Z</time>
      </trkpt>
      <trkpt lat="43.250519" lon="13.004298">
        <ele>364.840121</ele>
        <time>2022-02-14T09:19:06.929Z</time>
      </trkpt>
      <trkpt lat="43.250299" lon="13.003747">
        <ele>365.313784</ele>
        <time>2022-02-14T09:19:19.108Z</time>
      </trkpt>
      <trkpt lat="43.249732" lon="13.003296">
        <ele>365.930366</ele>
        <time>2022-02-14T09:19:36.818Z</time>
      </trkpt>
      <trkpt lat="43.249114" lon="13.002774">
        <ele>366.613104</ele>
        <time>2022-02-14T09:19:56.513Z</time>
      </trkpt>
      <trkpt lat="43.247669" lon="13.001447">
        <ele>369.018872</ele>
        <time>2022-02-14T09:20:49.729Z</time>
      </trkpt>
      <trkpt lat="43.247311" lon="13.000374">
        <ele>370.239875</ele>
        <time>2022-02-14T09:21:15.995Z</time>
      </trkpt>
      <trkpt lat="43.247150" lon="13.000262">
        <ele>370.493025</ele>
        <time>2022-02-14T09:21:22.831Z</time>
      </trkpt>
      <trkpt lat="43.246907" lon="12.999632">
        <ele>371.221331</ele>
        <time>2022-02-14T09:21:38.230Z</time>
      </trkpt>
      <trkpt lat="43.246907" lon="12.999632">
        <ele>371.221331</ele>
        <time>2022-02-14T09:21:38.268Z</time>
      </trkpt>
      <trkpt lat="43.246907" lon="12.999632">
        <ele>371.221331</ele>
        <time>2022-02-14T09:21:38.268Z</time>
      </trkpt>
      <trkpt lat="43.246906" lon="12.999632">
        <ele>371.222733</ele>
        <time>2022-02-14T09:21:38.294Z</time>
      </trkpt>
      <trkpt lat="43.246492" lon="12.999208">
        <ele>371.947176</ele>
        <time>2022-02-14T09:21:51.651Z</time>
      </trkpt>
      <trkpt lat="43.246068" lon="12.998790">
        <ele>372.304516</ele>
        <time>2022-02-14T09:22:05.150Z</time>
      </trkpt>
      <trkpt lat="43.246195" lon="12.999123">
        <ele>372.484430</ele>
        <time>2022-02-14T09:22:11.748Z</time>
      </trkpt>
      <trkpt lat="43.246163" lon="12.999233">
        <ele>372.541124</ele>
        <time>2022-02-14T09:22:14.143Z</time>
      </trkpt>
      <trkpt lat="43.245950" lon="12.999502">
        <ele>372.731302</ele>
        <time>2022-02-14T09:22:21.201Z</time>
      </trkpt>
      <trkpt lat="43.245297" lon="13.000265">
        <ele>373.337898</ele>
        <time>2022-02-14T09:22:43.343Z</time>
      </trkpt>
      <trkpt lat="43.245006" lon="12.999595">
        <ele>373.827355</ele>
        <time>2022-02-14T09:22:57.227Z</time>
      </trkpt>
      <trkpt lat="43.245055" lon="12.999510">
        <ele>373.895370</ele>
        <time>2022-02-14T09:22:59.043Z</time>
      </trkpt>
      <trkpt lat="43.245053" lon="12.999402">
        <ele>373.963158</ele>
        <time>2022-02-14T09:23:01.051Z</time>
      </trkpt>
      <trkpt lat="43.245001" lon="12.999320">
        <ele>374.031375</ele>
        <time>2022-02-14T09:23:03.090Z</time>
      </trkpt>
      <trkpt lat="43.244885" lon="12.999323">
        <ele>374.131314</ele>
        <time>2022-02-14T09:23:06.069Z</time>
      </trkpt>
      <trkpt lat="43.243905" lon="12.997106">
        <ele>377.683611</ele>
        <time>2022-02-14T09:24:01.806Z</time>
      </trkpt>
      <trkpt lat="43.243287" lon="12.995645">
        <ele>382.286075</ele>
        <time>2022-02-14T09:24:55.931Z</time>
      </trkpt>
      <trkpt lat="43.242606" lon="12.994231">
        <ele>388.001945</ele>
        <time>2022-02-14T09:25:59.011Z</time>
      </trkpt>
      <trkpt lat="43.242380" lon="12.993936">
        <ele>388.431757</ele>
        <time>2022-02-14T09:26:12.111Z</time>
      </trkpt>
      <trkpt lat="43.241645" lon="12.993334">
        <ele>389.611357</ele>
        <time>2022-02-14T09:26:35.816Z</time>
      </trkpt>
      <trkpt lat="43.241513" lon="12.993129">
        <ele>389.886054</ele>
        <time>2022-02-14T09:26:41.065Z</time>
      </trkpt>
      <trkpt lat="43.241637" lon="12.992710">
        <ele>390.340118</ele>
        <time>2022-02-14T09:26:47.568Z</time>
      </trkpt>
      <trkpt lat="43.241868" lon="12.992400">
        <ele>389.601554</ele>
        <time>2022-02-14T09:26:53.270Z</time>
      </trkpt>
      <trkpt lat="43.243305" lon="12.991257">
        <ele>385.775427</ele>
        <time>2022-02-14T09:27:22.081Z</time>
      </trkpt>
      <trkpt lat="43.246205" lon="12.989009">
        <ele>381.831667</ele>
        <time>2022-02-14T09:28:28.435Z</time>
      </trkpt>
      <trkpt lat="43.246538" lon="12.988741">
        <ele>381.323217</ele>
        <time>2022-02-14T09:28:35.707Z</time>
      </trkpt>
      <trkpt lat="43.246726" lon="12.988337">
        <ele>380.834665</ele>
        <time>2022-02-14T09:28:42.250Z</time>
      </trkpt>
      <trkpt lat="43.246697" lon="12.987240">
        <ele>379.716000</ele>
        <time>2022-02-14T09:28:57.397Z</time>
      </trkpt>
      <trkpt lat="43.246691" lon="12.987042">
        <ele>379.514048</ele>
        <time>2022-02-14T09:29:00.179Z</time>
      </trkpt>
      <trkpt lat="43.246683" lon="12.986669">
        <ele>379.203448</ele>
        <time>2022-02-14T09:29:05.543Z</time>
      </trkpt>
      <trkpt lat="43.246647" lon="12.985803">
        <ele>379.062050</ele>
        <time>2022-02-14T09:29:18.462Z</time>
      </trkpt>
      <trkpt lat="43.246688" lon="12.985180">
        <ele>378.960080</ele>
        <time>2022-02-14T09:29:28.130Z</time>
      </trkpt>
      <trkpt lat="43.247163" lon="12.984047">
        <ele>379.207334</ele>
        <time>2022-02-14T09:29:51.712Z</time>
      </trkpt>
      <trkpt lat="43.247270" lon="12.983686">
        <ele>379.578933</ele>
        <time>2022-02-14T09:29:59.380Z</time>
      </trkpt>
      <trkpt lat="43.247430" lon="12.982753">
        <ele>380.492819</ele>
        <time>2022-02-14T09:30:19.061Z</time>
      </trkpt>
      <trkpt lat="43.247427" lon="12.982298">
        <ele>380.926654</ele>
        <time>2022-02-14T09:30:29.447Z</time>
      </trkpt>
      <trkpt lat="43.247360" lon="12.981784">
        <ele>381.758643</ele>
        <time>2022-02-14T09:30:42.174Z</time>
      </trkpt>
      <trkpt lat="43.247375" lon="12.981350">
        <ele>382.713658</ele>
        <time>2022-02-14T09:30:53.421Z</time>
      </trkpt>
      <trkpt lat="43.247666" lon="12.980548">
        <ele>384.683073</ele>
        <time>2022-02-14T09:31:18.251Z</time>
      </trkpt>
      <trkpt lat="43.247645" lon="12.976740">
        <ele>393.793929</ele>
        <time>2022-02-14T09:33:09.724Z</time>
      </trkpt>
      <trkpt lat="43.247739" lon="12.976368">
        <ele>394.511014</ele>
        <time>2022-02-14T09:33:19.256Z</time>
      </trkpt>
      <trkpt lat="43.248278" lon="12.974984">
        <ele>397.369158</ele>
        <time>2022-02-14T09:33:57.118Z</time>
      </trkpt>
      <trkpt lat="43.248400" lon="12.974683">
        <ele>397.965708</ele>
        <time>2022-02-14T09:34:04.934Z</time>
      </trkpt>
      <trkpt lat="43.248906" lon="12.973414">
        <ele>400.455246</ele>
        <time>2022-02-14T09:34:40.140Z</time>
      </trkpt>
      <trkpt lat="43.249983" lon="12.970652">
        <ele>406.420497</ele>
        <time>2022-02-14T09:36:02.644Z</time>
      </trkpt>
      <trkpt lat="43.250728" lon="12.968695">
        <ele>409.641293</ele>
        <time>2022-02-14T09:36:55.149Z</time>
      </trkpt>
      <trkpt lat="43.251086" lon="12.967892">
        <ele>410.675550</ele>
        <time>2022-02-14T09:37:14.829Z</time>
      </trkpt>
      <trkpt lat="43.251121" lon="12.967804">
        <ele>410.768270</ele>
        <time>2022-02-14T09:37:16.797Z</time>
      </trkpt>
      <trkpt lat="43.251266" lon="12.967422">
        <ele>411.166613</ele>
        <time>2022-02-14T09:37:25.519Z</time>
      </trkpt>
      <trkpt lat="43.251831" lon="12.965950">
        <ele>412.811750</ele>
        <time>2022-02-14T09:37:59.605Z</time>
      </trkpt>
      <trkpt lat="43.252662" lon="12.963818">
        <ele>415.816432</ele>
        <time>2022-02-14T09:38:54.699Z</time>
      </trkpt>
      <trkpt lat="43.252725" lon="12.962273">
        <ele>417.917882</ele>
        <time>2022-02-14T09:39:30.327Z</time>
      </trkpt>
      <trkpt lat="43.252727" lon="12.962213">
        <ele>417.999450</ele>
        <time>2022-02-14T09:39:31.772Z</time>
      </trkpt>
      <trkpt lat="43.252766" lon="12.961329">
        <ele>419.178402</ele>
        <time>2022-02-14T09:39:52.022Z</time>
      </trkpt>
      <trkpt lat="43.252899" lon="12.960413">
        <ele>420.378680</ele>
        <time>2022-02-14T09:40:13.701Z</time>
      </trkpt>
      <trkpt lat="43.253637" lon="12.957016">
        <ele>424.496696</ele>
        <time>2022-02-14T09:41:31.900Z</time>
      </trkpt>
      <trkpt lat="43.253692" lon="12.957014">
        <ele>424.579621</ele>
        <time>2022-02-14T09:41:33.438Z</time>
      </trkpt>
      <trkpt lat="43.253747" lon="12.956856">
        <ele>424.743658</ele>
        <time>2022-02-14T09:41:36.917Z</time>
      </trkpt>
      <trkpt lat="43.253715" lon="12.956798">
        <ele>424.805846</ele>
        <time>2022-02-14T09:41:38.148Z</time>
      </trkpt>
      <trkpt lat="43.253666" lon="12.956775">
        <ele>424.866614</ele>
        <time>2022-02-14T09:41:39.364Z</time>
      </trkpt>
      <trkpt lat="43.253599" lon="12.956400">
        <ele>425.196620</ele>
        <time>2022-02-14T09:41:46.916Z</time>
      </trkpt>
      <trkpt lat="43.253329" lon="12.955472">
        <ele>426.050704</ele>
        <time>2022-02-14T09:42:06.594Z</time>
      </trkpt>
      <trkpt lat="43.253137" lon="12.955261">
        <ele>426.339296</ele>
        <time>2022-02-14T09:42:13.744Z</time>
      </trkpt>
      <trkpt lat="43.253015" lon="12.955183">
        <ele>426.497220</ele>
        <time>2022-02-14T09:42:17.627Z</time>
      </trkpt>
      <trkpt lat="43.252764" lon="12.955014">
        <ele>426.897216</ele>
        <time>2022-02-14T09:42:25.678Z</time>
      </trkpt>
      <trkpt lat="43.252458" lon="12.954596">
        <ele>427.923633</ele>
        <time>2022-02-14T09:42:38.999Z</time>
      </trkpt>
      <trkpt lat="43.252348" lon="12.954157">
        <ele>428.727678</ele>
        <time>2022-02-14T09:42:50.376Z</time>
      </trkpt>
      <trkpt lat="43.252356" lon="12.953572">
        <ele>429.741025</ele>
        <time>2022-02-14T09:43:05.790Z</time>
      </trkpt>
      <trkpt lat="43.252429" lon="12.951827">
        <ele>433.541065</ele>
        <time>2022-02-14T09:43:53.053Z</time>
      </trkpt>
      <trkpt lat="43.252501" lon="12.950520">
        <ele>436.821747</ele>
        <time>2022-02-14T09:44:31.752Z</time>
      </trkpt>
      <trkpt lat="43.252529" lon="12.949614">
        <ele>438.568973</ele>
        <time>2022-02-14T09:45:00.514Z</time>
      </trkpt>
      <trkpt lat="43.252540" lon="12.948829">
        <ele>439.987501</ele>
        <time>2022-02-14T09:45:19.852Z</time>
      </trkpt>
      <trkpt lat="43.252322" lon="12.947997">
        <ele>441.584995</ele>
        <time>2022-02-14T09:45:40.172Z</time>
      </trkpt>
      <trkpt lat="43.252197" lon="12.947814">
        <ele>441.781773</ele>
        <time>2022-02-14T09:45:46.373Z</time>
      </trkpt>
      <trkpt lat="43.252122" lon="12.947741">
        <ele>441.848875</ele>
        <time>2022-02-14T09:45:48.934Z</time>
      </trkpt>
      <trkpt lat="43.252122" lon="12.947741">
        <ele>441.848875</ele>
        <time>2022-02-14T09:45:49.051Z</time>
      </trkpt>
      <trkpt lat="43.252122" lon="12.947741">
        <ele>441.848875</ele>
        <time>2022-02-14T09:45:49.051Z</time>
      </trkpt>
      <trkpt lat="43.252117" lon="12.947751">
        <ele>441.855324</ele>
        <time>2022-02-14T09:45:49.280Z</time>
      </trkpt>
      <trkpt lat="43.252540" lon="12.948829">
        <ele>442.506281</ele>
        <time>2022-02-14T09:46:12.345Z</time>
      </trkpt>
      <trkpt lat="43.252529" lon="12.949614">
        <ele>442.923674</ele>
        <time>2022-02-14T09:46:24.675Z</time>
      </trkpt>
      <trkpt lat="43.253137" lon="12.949363">
        <ele>444.081300</ele>
        <time>2022-02-14T09:46:45.048Z</time>
      </trkpt>
      <trkpt lat="43.253297" lon="12.949273">
        <ele>444.426855</ele>
        <time>2022-02-14T09:46:50.555Z</time>
      </trkpt>
      <trkpt lat="43.253537" lon="12.949121">
        <ele>444.955065</ele>
        <time>2022-02-14T09:46:58.504Z</time>
      </trkpt>
      <trkpt lat="43.254136" lon="12.948788">
        <ele>446.246573</ele>
        <time>2022-02-14T09:47:22.450Z</time>
      </trkpt>
      <trkpt lat="43.254220" lon="12.948749">
        <ele>446.423785</ele>
        <time>2022-02-14T09:47:25.899Z</time>
      </trkpt>
      <trkpt lat="43.254310" lon="12.948711">
        <ele>446.608805</ele>
        <time>2022-02-14T09:47:29.396Z</time>
      </trkpt>
      <trkpt lat="43.255624" lon="12.948080">
        <ele>449.095131</ele>
        <time>2022-02-14T09:48:12.820Z</time>
      </trkpt>
      <trkpt lat="43.256022" lon="12.947852">
        <ele>449.849252</ele>
        <time>2022-02-14T09:48:24.540Z</time>
      </trkpt>
      <trkpt lat="43.257967" lon="12.946323">
        <ele>453.410677</ele>
        <time>2022-02-14T09:49:29.862Z</time>
      </trkpt>
      <trkpt lat="43.258576" lon="12.945784">
        <ele>455.120341</ele>
        <time>2022-02-14T09:49:54.032Z</time>
      </trkpt>
      <trkpt lat="43.259468" lon="12.944802">
        <ele>458.547232</ele>
        <time>2022-02-14T09:50:38.283Z</time>
      </trkpt>
      <trkpt lat="43.260530" lon="12.943342">
        <ele>463.930376</ele>
        <time>2022-02-14T09:51:41.401Z</time>
      </trkpt>
      <trkpt lat="43.261414" lon="12.941959">
        <ele>468.075321</ele>
        <time>2022-02-14T09:52:34.101Z</time>
      </trkpt>
      <trkpt lat="43.262358" lon="12.939930">
        <ele>470.344759</ele>
        <time>2022-02-14T09:53:22.543Z</time>
      </trkpt>
      <trkpt lat="43.262621" lon="12.939486">
        <ele>470.782116</ele>
        <time>2022-02-14T09:53:31.947Z</time>
      </trkpt>
      <trkpt lat="43.262836" lon="12.939161">
        <ele>471.113279</ele>
        <time>2022-02-14T09:53:38.819Z</time>
      </trkpt>
      <trkpt lat="43.264387" lon="12.936938">
        <ele>475.022946</ele>
        <time>2022-02-14T09:54:44.328Z</time>
      </trkpt>
      <trkpt lat="43.264795" lon="12.936511">
        <ele>476.428701</ele>
        <time>2022-02-14T09:55:10.521Z</time>
      </trkpt>
      <trkpt lat="43.265359" lon="12.936489">
        <ele>477.611088</ele>
        <time>2022-02-14T09:55:31.981Z</time>
      </trkpt>
      <trkpt lat="43.265552" lon="12.936482">
        <ele>477.805623</ele>
        <time>2022-02-14T09:55:38.553Z</time>
      </trkpt>
      <trkpt lat="43.265757" lon="12.936140">
        <ele>478.130636</ele>
        <time>2022-02-14T09:55:46.403Z</time>
      </trkpt>
      <trkpt lat="43.265841" lon="12.935928">
        <ele>478.307720</ele>
        <time>2022-02-14T09:55:51.309Z</time>
      </trkpt>
      <trkpt lat="43.265757" lon="12.936140">
        <ele>478.484805</ele>
        <time>2022-02-14T09:55:56.026Z</time>
      </trkpt>
      <trkpt lat="43.265552" lon="12.936482">
        <ele>478.809817</ele>
        <time>2022-02-14T09:56:05.054Z</time>
      </trkpt>
      <trkpt lat="43.265359" lon="12.936489">
        <ele>479.004352</ele>
        <time>2022-02-14T09:56:09.277Z</time>
      </trkpt>
      <trkpt lat="43.264795" lon="12.936511">
        <ele>478.969798</ele>
        <time>2022-02-14T09:56:20.220Z</time>
      </trkpt>
      <trkpt lat="43.264856" lon="12.936345">
        <ele>478.878326</ele>
        <time>2022-02-14T09:56:23.009Z</time>
      </trkpt>
      <trkpt lat="43.265076" lon="12.936103">
        <ele>478.687898</ele>
        <time>2022-02-14T09:56:28.511Z</time>
      </trkpt>
      <trkpt lat="43.265652" lon="12.935272">
        <ele>478.123500</ele>
        <time>2022-02-14T09:56:47.131Z</time>
      </trkpt>
      <trkpt lat="43.266208" lon="12.934107">
        <ele>479.747892</ele>
        <time>2022-02-14T09:57:23.749Z</time>
      </trkpt>
      <trkpt lat="43.266812" lon="12.932590">
        <ele>482.571774</ele>
        <time>2022-02-14T09:58:10.180Z</time>
      </trkpt>
      <trkpt lat="43.267204" lon="12.931803">
        <ele>484.422160</ele>
        <time>2022-02-14T09:58:36.568Z</time>
      </trkpt>
      <trkpt lat="43.267246" lon="12.931152">
        <ele>485.690442</ele>
        <time>2022-02-14T09:58:55.171Z</time>
      </trkpt>
      <trkpt lat="43.267115" lon="12.930089">
        <ele>488.313306</ele>
        <time>2022-02-14T09:59:24.747Z</time>
      </trkpt>
      <trkpt lat="43.267055" lon="12.929604">
        <ele>489.696509</ele>
        <time>2022-02-14T09:59:38.854Z</time>
      </trkpt>
      <trkpt lat="43.267170" lon="12.928978">
        <ele>491.511767</ele>
        <time>2022-02-14T09:59:59.595Z</time>
      </trkpt>
      <trkpt lat="43.267144" lon="12.928448">
        <ele>493.005331</ele>
        <time>2022-02-14T10:00:18.618Z</time>
      </trkpt>
      <trkpt lat="43.267252" lon="12.927965">
        <ele>494.924948</ele>
        <time>2022-02-14T10:00:38.149Z</time>
      </trkpt>
      <trkpt lat="43.267243" lon="12.927575">
        <ele>496.643831</ele>
        <time>2022-02-14T10:00:54.180Z</time>
      </trkpt>
      <trkpt lat="43.266864" lon="12.925642">
        <ele>505.322504</ele>
        <time>2022-02-14T10:02:16.342Z</time>
      </trkpt>
      <trkpt lat="43.266545" lon="12.924893">
        <ele>508.628730</ele>
        <time>2022-02-14T10:02:50.038Z</time>
      </trkpt>
      <trkpt lat="43.266472" lon="12.923197">
        <ele>514.938998</ele>
        <time>2022-02-14T10:03:50.107Z</time>
      </trkpt>
      <trkpt lat="43.266373" lon="12.922556">
        <ele>517.113137</ele>
        <time>2022-02-14T10:04:10.928Z</time>
      </trkpt>
      <trkpt lat="43.266324" lon="12.922372">
        <ele>517.763192</ele>
        <time>2022-02-14T10:04:17.650Z</time>
      </trkpt>
      <trkpt lat="43.265700" lon="12.921396">
        <ele>522.072722</ele>
        <time>2022-02-14T10:05:03.245Z</time>
      </trkpt>
      <trkpt lat="43.265577" lon="12.921022">
        <ele>523.436998</ele>
        <time>2022-02-14T10:05:18.593Z</time>
      </trkpt>
      <trkpt lat="43.265390" lon="12.919186">
        <ele>529.600137</ele>
        <time>2022-02-14T10:06:22.420Z</time>
      </trkpt>
      <trkpt lat="43.265186" lon="12.918452">
        <ele>531.880344</ele>
        <time>2022-02-14T10:06:48.877Z</time>
      </trkpt>
      <trkpt lat="43.265147" lon="12.918107">
        <ele>532.845257</ele>
        <time>2022-02-14T10:06:59.980Z</time>
      </trkpt>
      <trkpt lat="43.265145" lon="12.917774">
        <ele>533.765616</ele>
        <time>2022-02-14T10:07:10.194Z</time>
      </trkpt>
      <trkpt lat="43.265266" lon="12.917350">
        <ele>535.024218</ele>
        <time>2022-02-14T10:07:23.487Z</time>
      </trkpt>
      <trkpt lat="43.265181" lon="12.916545">
        <ele>537.307862</ele>
        <time>2022-02-14T10:07:50.036Z</time>
      </trkpt>
      <trkpt lat="43.265184" lon="12.916083">
        <ele>538.811723</ele>
        <time>2022-02-14T10:08:04.081Z</time>
      </trkpt>
      <trkpt lat="43.265091" lon="12.915812">
        <ele>539.786872</ele>
        <time>2022-02-14T10:08:12.738Z</time>
      </trkpt>
      <trkpt lat="43.264835" lon="12.915580">
        <ele>541.157898</ele>
        <time>2022-02-14T10:08:26.243Z</time>
      </trkpt>
      <trkpt lat="43.264609" lon="12.915237">
        <ele>542.663564</ele>
        <time>2022-02-14T10:08:42.545Z</time>
      </trkpt>
      <trkpt lat="43.264560" lon="12.915125">
        <ele>543.088862</ele>
        <time>2022-02-14T10:08:46.940Z</time>
      </trkpt>
      <trkpt lat="43.264513" lon="12.915030">
        <ele>543.462705</ele>
        <time>2022-02-14T10:08:51.350Z</time>
      </trkpt>
      <trkpt lat="43.264403" lon="12.914661">
        <ele>544.760554</ele>
        <time>2022-02-14T10:09:06.171Z</time>
      </trkpt>
      <trkpt lat="43.264334" lon="12.914109">
        <ele>547.409471</ele>
        <time>2022-02-14T10:09:29.001Z</time>
      </trkpt>
      <trkpt lat="43.264170" lon="12.913534">
        <ele>550.547683</ele>
        <time>2022-02-14T10:09:56.382Z</time>
      </trkpt>
      <trkpt lat="43.264197" lon="12.910424">
        <ele>564.453937</ele>
        <time>2022-02-14T10:12:16.104Z</time>
      </trkpt>
      <trkpt lat="43.264107" lon="12.909981">
        <ele>566.280253</ele>
        <time>2022-02-14T10:12:32.488Z</time>
      </trkpt>
      <trkpt lat="43.263763" lon="12.909181">
        <ele>566.019681</ele>
        <time>2022-02-14T10:12:48.932Z</time>
      </trkpt>
      <trkpt lat="43.263148" lon="12.908342">
        <ele>563.269560</ele>
        <time>2022-02-14T10:13:04.394Z</time>
      </trkpt>
      <trkpt lat="43.263123" lon="12.907830">
        <ele>562.084097</ele>
        <time>2022-02-14T10:13:11.045Z</time>
      </trkpt>
      <trkpt lat="43.263164" lon="12.907718">
        <ele>561.794505</ele>
        <time>2022-02-14T10:13:12.601Z</time>
      </trkpt>
      <trkpt lat="43.263616" lon="12.906980">
        <ele>562.268660</ele>
        <time>2022-02-14T10:13:26.072Z</time>
      </trkpt>
      <trkpt lat="43.263905" lon="12.906574">
        <ele>562.568126</ele>
        <time>2022-02-14T10:13:35.098Z</time>
      </trkpt>
      <trkpt lat="43.265535" lon="12.904687">
        <ele>572.631794</ele>
        <time>2022-02-14T10:15:38.191Z</time>
      </trkpt>
      <trkpt lat="43.266479" lon="12.903407">
        <ele>582.230928</ele>
        <time>2022-02-14T10:16:56.813Z</time>
      </trkpt>
      <trkpt lat="43.267588" lon="12.902288">
        <ele>594.278602</ele>
        <time>2022-02-14T10:18:26.121Z</time>
      </trkpt>
      <trkpt lat="43.268071" lon="12.901879">
        <ele>600.367697</ele>
        <time>2022-02-14T10:19:09.835Z</time>
      </trkpt>
      <trkpt lat="43.268115" lon="12.901847">
        <ele>600.901976</ele>
        <time>2022-02-14T10:19:14.498Z</time>
      </trkpt>
      <trkpt lat="43.268225" lon="12.901719">
        <ele>602.449121</ele>
        <time>2022-02-14T10:19:27.797Z</time>
      </trkpt>
      <trkpt lat="43.268256" lon="12.901526">
        <ele>603.993425</ele>
        <time>2022-02-14T10:19:38.267Z</time>
      </trkpt>
      <trkpt lat="43.268139" lon="12.901230">
        <ele>606.625091</ele>
        <time>2022-02-14T10:20:02.334Z</time>
      </trkpt>
      <trkpt lat="43.268015" lon="12.899909">
        <ele>620.371867</ele>
        <time>2022-02-14T10:21:33.113Z</time>
      </trkpt>
      <trkpt lat="43.267826" lon="12.899253">
        <ele>627.862212</ele>
        <time>2022-02-14T10:22:29.857Z</time>
      </trkpt>
      <trkpt lat="43.267793" lon="12.898747">
        <ele>633.256091</ele>
        <time>2022-02-14T10:23:05.485Z</time>
      </trkpt>
      <trkpt lat="43.267840" lon="12.897990">
        <ele>640.674338</ele>
        <time>2022-02-14T10:23:56.892Z</time>
      </trkpt>
      <trkpt lat="43.267701" lon="12.897267">
        <ele>647.915520</ele>
        <time>2022-02-14T10:24:49.940Z</time>
      </trkpt>
      <trkpt lat="43.267585" lon="12.896972">
        <ele>651.162117</ele>
        <time>2022-02-14T10:25:09.828Z</time>
      </trkpt>
      <trkpt lat="43.267288" lon="12.896740">
        <ele>655.706094</ele>
        <time>2022-02-14T10:25:37.542Z</time>
      </trkpt>
      <trkpt lat="43.266974" lon="12.896585">
        <ele>660.310024</ele>
        <time>2022-02-14T10:26:04.716Z</time>
      </trkpt>
      <trkpt lat="43.266800" lon="12.896247">
        <ele>664.612286</ele>
        <time>2022-02-14T10:26:30.406Z</time>
      </trkpt>
      <trkpt lat="43.266805" lon="12.896164">
        <ele>665.477897</ele>
        <time>2022-02-14T10:26:38.893Z</time>
      </trkpt>
      <trkpt lat="43.266902" lon="12.896032">
        <ele>667.427039</ele>
        <time>2022-02-14T10:26:53.957Z</time>
      </trkpt>
      <trkpt lat="43.267055" lon="12.895910">
        <ele>669.952317</ele>
        <time>2022-02-14T10:27:06.731Z</time>
      </trkpt>
      <trkpt lat="43.267362" lon="12.895513">
        <ele>675.971220</ele>
        <time>2022-02-14T10:27:51.736Z</time>
      </trkpt>
      <trkpt lat="43.267716" lon="12.894892">
        <ele>684.222902</ele>
        <time>2022-02-14T10:28:45.648Z</time>
      </trkpt>
      <trkpt lat="43.267727" lon="12.894792">
        <ele>685.366324</ele>
        <time>2022-02-14T10:28:50.922Z</time>
      </trkpt>
      <trkpt lat="43.267683" lon="12.894721">
        <ele>686.420408</ele>
        <time>2022-02-14T10:29:00.441Z</time>
      </trkpt>
      <trkpt lat="43.267615" lon="12.894708">
        <ele>687.486408</ele>
        <time>2022-02-14T10:29:07.931Z</time>
      </trkpt>
      <trkpt lat="43.266982" lon="12.895278">
        <ele>699.239228</ele>
        <time>2022-02-14T10:30:26.897Z</time>
      </trkpt>
      <trkpt lat="43.266448" lon="12.895676">
        <ele>708.672888</ele>
        <time>2022-02-14T10:31:36.412Z</time>
      </trkpt>
      <trkpt lat="43.266254" lon="12.895916">
        <ele>712.242727</ele>
        <time>2022-02-14T10:32:00.934Z</time>
      </trkpt>
      <trkpt lat="43.265517" lon="12.897247">
        <ele>723.856944</ele>
        <time>2022-02-14T10:33:28.315Z</time>
      </trkpt>
      <trkpt lat="43.265454" lon="12.897252">
        <ele>724.458882</ele>
        <time>2022-02-14T10:33:33.094Z</time>
      </trkpt>
      <trkpt lat="43.265424" lon="12.897097">
        <ele>725.572881</ele>
        <time>2022-02-14T10:33:39.968Z</time>
      </trkpt>
      <trkpt lat="43.265651" lon="12.896664">
        <ele>728.931354</ele>
        <time>2022-02-14T10:34:02.643Z</time>
      </trkpt>
      <trkpt lat="43.266019" lon="12.895527">
        <ele>732.960646</ele>
        <time>2022-02-14T10:34:50.257Z</time>
      </trkpt>
      <trkpt lat="43.267056" lon="12.894045">
        <ele>737.067232</ele>
        <time>2022-02-14T10:35:46.636Z</time>
      </trkpt>
      <trkpt lat="43.267200" lon="12.893714">
        <ele>737.251220</ele>
        <time>2022-02-14T10:35:55.596Z</time>
      </trkpt>
      <trkpt lat="43.267268" lon="12.893391">
        <ele>737.411661</ele>
        <time>2022-02-14T10:36:02.642Z</time>
      </trkpt>
      <trkpt lat="43.267716" lon="12.893403">
        <ele>737.705297</ele>
        <time>2022-02-14T10:36:13.280Z</time>
      </trkpt>
      <trkpt lat="43.268904" lon="12.892475">
        <ele>736.029267</ele>
        <time>2022-02-14T10:36:39.264Z</time>
      </trkpt>
      <trkpt lat="43.269113" lon="12.892379">
        <ele>735.706864</ele>
        <time>2022-02-14T10:36:43.502Z</time>
      </trkpt>
      <trkpt lat="43.269282" lon="12.892391">
        <ele>735.459297</ele>
        <time>2022-02-14T10:36:53.941Z</time>
      </trkpt>
      <trkpt lat="43.269433" lon="12.892462">
        <ele>735.225804</ele>
        <time>2022-02-14T10:36:57.129Z</time>
      </trkpt>
      <trkpt lat="43.269509" lon="12.892619">
        <ele>735.576847</ele>
        <time>2022-02-14T10:37:06.908Z</time>
      </trkpt>
      <trkpt lat="43.269832" lon="12.893801">
        <ele>739.210959</ele>
        <time>2022-02-14T10:37:40.854Z</time>
      </trkpt>
      <trkpt lat="43.269900" lon="12.893891">
        <ele>739.584295</ele>
        <time>2022-02-14T10:37:44.723Z</time>
      </trkpt>
      <trkpt lat="43.269982" lon="12.893882">
        <ele>739.909496</ele>
        <time>2022-02-14T10:37:54.076Z</time>
      </trkpt>
      <trkpt lat="43.270109" lon="12.894027">
        <ele>740.562393</ele>
        <time>2022-02-14T10:37:57.588Z</time>
      </trkpt>
      <trkpt lat="43.270320" lon="12.894150">
        <ele>741.468560</ele>
        <time>2022-02-14T10:38:12.440Z</time>
      </trkpt>
      <trkpt lat="43.272067" lon="12.894255">
        <ele>752.092680</ele>
        <time>2022-02-14T10:39:49.345Z</time>
      </trkpt>
      <trkpt lat="43.275855" lon="12.895003">
        <ele>778.013198</ele>
        <time>2022-02-14T10:43:44.681Z</time>
      </trkpt>
      <trkpt lat="43.278097" lon="12.894642">
        <ele>779.051895</ele>
        <time>2022-02-14T10:44:38.680Z</time>
      </trkpt>
      <trkpt lat="43.278695" lon="12.894708">
        <ele>778.734597</ele>
        <time>2022-02-14T10:44:52.251Z</time>
      </trkpt>
      <trkpt lat="43.279282" lon="12.894850">
        <ele>778.419359</ele>
        <time>2022-02-14T10:45:06.556Z</time>
      </trkpt>
      <trkpt lat="43.281173" lon="12.895741">
        <ele>776.215701</ele>
        <time>2022-02-14T10:45:52.259Z</time>
      </trkpt>
      <trkpt lat="43.282162" lon="12.895988">
        <ele>771.752042</ele>
        <time>2022-02-14T10:46:10.714Z</time>
      </trkpt>
      <trkpt lat="43.283095" lon="12.895891">
        <ele>767.285096</ele>
        <time>2022-02-14T10:46:27.182Z</time>
      </trkpt>
      <trkpt lat="43.283527" lon="12.895677">
        <ele>764.412903</ele>
        <time>2022-02-14T10:46:35.257Z</time>
      </trkpt>
      <trkpt lat="43.284040" lon="12.895734">
        <ele>761.193942</ele>
        <time>2022-02-14T10:46:44.217Z</time>
      </trkpt>
      <trkpt lat="43.284564" lon="12.895881">
        <ele>757.849020</ele>
        <time>2022-02-14T10:46:53.292Z</time>
      </trkpt>
      <trkpt lat="43.285062" lon="12.896190">
        <ele>753.791859</ele>
        <time>2022-02-14T10:47:02.578Z</time>
      </trkpt>
      <trkpt lat="43.286072" lon="12.896695">
        <ele>745.465787</ele>
        <time>2022-02-14T10:47:20.531Z</time>
      </trkpt>
      <trkpt lat="43.286742" lon="12.896442">
        <ele>739.483529</ele>
        <time>2022-02-14T10:47:31.904Z</time>
      </trkpt>
      <trkpt lat="43.287258" lon="12.896474">
        <ele>734.707246</ele>
        <time>2022-02-14T10:47:40.304Z</time>
      </trkpt>
      <trkpt lat="43.287692" lon="12.896677">
        <ele>730.467833</ele>
        <time>2022-02-14T10:47:47.648Z</time>
      </trkpt>
      <trkpt lat="43.288621" lon="12.897350">
        <ele>719.600593</ele>
        <time>2022-02-14T10:48:04.673Z</time>
      </trkpt>
      <trkpt lat="43.289154" lon="12.897736">
        <ele>712.917207</ele>
        <time>2022-02-14T10:48:14.160Z</time>
      </trkpt>
      <trkpt lat="43.289163" lon="12.897820">
        <ele>712.231671</ele>
        <time>2022-02-14T10:48:15.733Z</time>
      </trkpt>
      <trkpt lat="43.289154" lon="12.897736">
        <ele>711.546136</ele>
        <time>2022-02-14T10:48:17.312Z</time>
      </trkpt>
      <trkpt lat="43.289282" lon="12.897645">
        <ele>709.947469</ele>
        <time>2022-02-14T10:48:19.514Z</time>
      </trkpt>
      <trkpt lat="43.289327" lon="12.897515">
        <ele>708.785191</ele>
        <time>2022-02-14T10:48:21.133Z</time>
      </trkpt>
      <trkpt lat="43.289158" lon="12.896923">
        <ele>703.453190</ele>
        <time>2022-02-14T10:48:28.261Z</time>
      </trkpt>
      <trkpt lat="43.288517" lon="12.894678">
        <ele>684.012619</ele>
        <time>2022-02-14T10:48:55.677Z</time>
      </trkpt>
      <trkpt lat="43.288584" lon="12.893745">
        <ele>680.042501</ele>
        <time>2022-02-14T10:49:07.299Z</time>
      </trkpt>
      <trkpt lat="43.288770" lon="12.893444">
        <ele>678.370511</ele>
        <time>2022-02-14T10:49:12.970Z</time>
      </trkpt>
      <trkpt lat="43.289154" lon="12.893617">
        <ele>676.019512</ele>
        <time>2022-02-14T10:49:21.039Z</time>
      </trkpt>
      <trkpt lat="43.289497" lon="12.893798">
        <ele>674.353738</ele>
        <time>2022-02-14T10:49:28.380Z</time>
      </trkpt>
      <trkpt lat="43.290215" lon="12.894586">
        <ele>671.635824</ele>
        <time>2022-02-14T10:49:46.021Z</time>
      </trkpt>
      <trkpt lat="43.290348" lon="12.894612">
        <ele>671.238508</ele>
        <time>2022-02-14T10:49:48.334Z</time>
      </trkpt>
      <trkpt lat="43.290461" lon="12.894554">
        <ele>670.881743</ele>
        <time>2022-02-14T10:49:51.295Z</time>
      </trkpt>
      <trkpt lat="43.290521" lon="12.894500">
        <ele>670.669604</ele>
        <time>2022-02-14T10:49:52.556Z</time>
      </trkpt>
      <trkpt lat="43.290764" lon="12.894282">
        <ele>669.811264</ele>
        <time>2022-02-14T10:49:58.450Z</time>
      </trkpt>
      <trkpt lat="43.291173" lon="12.894051">
        <ele>669.518810</ele>
        <time>2022-02-14T10:50:07.845Z</time>
      </trkpt>
      <trkpt lat="43.291436" lon="12.894115">
        <ele>669.516296</ele>
        <time>2022-02-14T10:50:16.615Z</time>
      </trkpt>
      <trkpt lat="43.291173" lon="12.894051">
        <ele>669.513783</ele>
        <time>2022-02-14T10:50:24.736Z</time>
      </trkpt>
      <trkpt lat="43.291204" lon="12.893998">
        <ele>669.513317</ele>
        <time>2022-02-14T10:50:26.279Z</time>
      </trkpt>
      <trkpt lat="43.291178" lon="12.893913">
        <ele>669.512685</ele>
        <time>2022-02-14T10:50:27.628Z</time>
      </trkpt>
      <trkpt lat="43.290917" lon="12.893657">
        <ele>669.509668</ele>
        <time>2022-02-14T10:50:35.539Z</time>
      </trkpt>
      <trkpt lat="43.290711" lon="12.893452">
        <ele>669.507274</ele>
        <time>2022-02-14T10:50:45.155Z</time>
      </trkpt>
      <trkpt lat="43.290171" lon="12.892479">
        <ele>673.705285</ele>
        <time>2022-02-14T10:51:28.588Z</time>
      </trkpt>
      <trkpt lat="43.290167" lon="12.892334">
        <ele>674.375164</ele>
        <time>2022-02-14T10:51:35.046Z</time>
      </trkpt>
      <trkpt lat="43.290277" lon="12.892338">
        <ele>675.073067</ele>
        <time>2022-02-14T10:51:41.771Z</time>
      </trkpt>
      <trkpt lat="43.290805" lon="12.892779">
        <ele>678.992125</ele>
        <time>2022-02-14T10:52:18.332Z</time>
      </trkpt>
      <trkpt lat="43.291214" lon="12.892943">
        <ele>682.185830</ele>
        <time>2022-02-14T10:52:45.488Z</time>
      </trkpt>
      <trkpt lat="43.292316" lon="12.893008">
        <ele>693.580196</ele>
        <time>2022-02-14T10:54:09.560Z</time>
      </trkpt>
      <trkpt lat="43.293792" lon="12.892789">
        <ele>709.038591</ele>
        <time>2022-02-14T10:56:14.133Z</time>
      </trkpt>
      <trkpt lat="43.293873" lon="12.892664">
        <ele>710.313289</ele>
        <time>2022-02-14T10:56:22.777Z</time>
      </trkpt>
      <trkpt lat="43.293728" lon="12.891448">
        <ele>719.277421</ele>
        <time>2022-02-14T10:57:28.187Z</time>
      </trkpt>
      <trkpt lat="43.294172" lon="12.889068">
        <ele>732.068872</ele>
        <time>2022-02-14T10:59:15.627Z</time>
      </trkpt>
      <trkpt lat="43.294294" lon="12.889083">
        <ele>732.730771</ele>
        <time>2022-02-14T10:59:21.741Z</time>
      </trkpt>
      <trkpt lat="43.294314" lon="12.889663">
        <ele>735.014533</ele>
        <time>2022-02-14T10:59:42.574Z</time>
      </trkpt>
      <trkpt lat="43.294702" lon="12.890473">
        <ele>738.828378</ele>
        <time>2022-02-14T11:00:18.878Z</time>
      </trkpt>
      <trkpt lat="43.295673" lon="12.891662">
        <ele>745.393764</ele>
        <time>2022-02-14T11:01:22.811Z</time>
      </trkpt>
      <trkpt lat="43.295785" lon="12.891711">
        <ele>745.966695</ele>
        <time>2022-02-14T11:01:30.360Z</time>
      </trkpt>
      <trkpt lat="43.295396" lon="12.890955">
        <ele>749.251273</ele>
        <time>2022-02-14T11:02:00.214Z</time>
      </trkpt>
      <trkpt lat="43.295055" lon="12.890000">
        <ele>752.322319</ele>
        <time>2022-02-14T11:02:34.720Z</time>
      </trkpt>
      <trkpt lat="43.294937" lon="12.888974">
        <ele>755.179506</ele>
        <time>2022-02-14T11:03:02.848Z</time>
      </trkpt>
      <trkpt lat="43.294986" lon="12.888336">
        <ele>757.029576</ele>
        <time>2022-02-14T11:03:21.455Z</time>
      </trkpt>
      <trkpt lat="43.295103" lon="12.887621">
        <ele>759.735211</ele>
        <time>2022-02-14T11:03:44.876Z</time>
      </trkpt>
      <trkpt lat="43.295241" lon="12.887105">
        <ele>761.764789</ele>
        <time>2022-02-14T11:04:03.958Z</time>
      </trkpt>
      <trkpt lat="43.295617" lon="12.886614">
        <ele>764.396078</ele>
        <time>2022-02-14T11:04:30.473Z</time>
      </trkpt>
      <trkpt lat="43.296242" lon="12.886255">
        <ele>769.469123</ele>
        <time>2022-02-14T11:05:05.591Z</time>
      </trkpt>
      <trkpt lat="43.296587" lon="12.885656">
        <ele>774.581126</ele>
        <time>2022-02-14T11:05:39.310Z</time>
      </trkpt>
      <trkpt lat="43.296929" lon="12.885503">
        <ele>777.888300</ele>
        <time>2022-02-14T11:06:06.072Z</time>
      </trkpt>
      <trkpt lat="43.297594" lon="12.885650">
        <ele>784.254734</ele>
        <time>2022-02-14T11:07:05.035Z</time>
      </trkpt>
      <trkpt lat="43.298926" lon="12.886561">
        <ele>799.309221</ele>
        <time>2022-02-14T11:09:07.080Z</time>
      </trkpt>
      <trkpt lat="43.301954" lon="12.889050">
        <ele>801.170075</ele>
        <time>2022-02-14T11:10:24.281Z</time>
      </trkpt>
      <trkpt lat="43.302475" lon="12.889509">
        <ele>800.681635</ele>
        <time>2022-02-14T11:10:34.601Z</time>
      </trkpt>
      <trkpt lat="43.302554" lon="12.889587">
        <ele>800.601854</ele>
        <time>2022-02-14T11:10:36.303Z</time>
      </trkpt>
      <trkpt lat="43.302907" lon="12.889969">
        <ele>800.233352</ele>
        <time>2022-02-14T11:10:44.778Z</time>
      </trkpt>
      <trkpt lat="43.303101" lon="12.890223">
        <ele>800.013589</ele>
        <time>2022-02-14T11:10:51.184Z</time>
      </trkpt>
      <trkpt lat="43.303102" lon="12.890223">
        <ele>800.012769</ele>
        <time>2022-02-14T11:10:51.313Z</time>
      </trkpt>
      <trkpt lat="43.303162" lon="12.890266">
        <ele>799.957271</ele>
        <time>2022-02-14T11:10:59.698Z</time>
      </trkpt>
      <trkpt lat="43.303102" lon="12.890223">
        <ele>799.901773</ele>
        <time>2022-02-14T11:11:08.082Z</time>
      </trkpt>
      <trkpt lat="43.303101" lon="12.890223">
        <ele>799.900953</ele>
        <time>2022-02-14T11:11:08.212Z</time>
      </trkpt>
      <trkpt lat="43.302907" lon="12.889969">
        <ele>799.681190</ele>
        <time>2022-02-14T11:11:14.314Z</time>
      </trkpt>
      <trkpt lat="43.302554" lon="12.889587">
        <ele>799.993565</ele>
        <time>2022-02-14T11:11:27.941Z</time>
      </trkpt>
      <trkpt lat="43.302475" lon="12.889509">
        <ele>800.136469</ele>
        <time>2022-02-14T11:11:31.480Z</time>
      </trkpt>
      <trkpt lat="43.301954" lon="12.889050">
        <ele>801.045625</ele>
        <time>2022-02-14T11:11:56.658Z</time>
      </trkpt>
      <trkpt lat="43.298926" lon="12.886561">
        <ele>797.157345</ele>
        <time>2022-02-14T11:13:17.353Z</time>
      </trkpt>
      <trkpt lat="43.297594" lon="12.885650">
        <ele>785.172593</ele>
        <time>2022-02-14T11:13:37.949Z</time>
      </trkpt>
      <trkpt lat="43.296929" lon="12.885503">
        <ele>777.537750</ele>
        <time>2022-02-14T11:13:47.167Z</time>
      </trkpt>
      <trkpt lat="43.296587" lon="12.885656">
        <ele>773.460792</ele>
        <time>2022-02-14T11:13:52.249Z</time>
      </trkpt>
      <trkpt lat="43.296242" lon="12.886255">
        <ele>769.226711</ele>
        <time>2022-02-14T11:14:00.468Z</time>
      </trkpt>
      <trkpt lat="43.295617" lon="12.886614">
        <ele>764.847394</ele>
        <time>2022-02-14T11:14:10.920Z</time>
      </trkpt>
      <trkpt lat="43.295241" lon="12.887105">
        <ele>761.493932</ele>
        <time>2022-02-14T11:14:18.956Z</time>
      </trkpt>
      <trkpt lat="43.295103" lon="12.887621">
        <ele>759.454510</ele>
        <time>2022-02-14T11:14:25.296Z</time>
      </trkpt>
      <trkpt lat="43.294986" lon="12.888336">
        <ele>757.319949</ele>
        <time>2022-02-14T11:14:33.954Z</time>
      </trkpt>
      <trkpt lat="43.294937" lon="12.888974">
        <ele>755.451330</ele>
        <time>2022-02-14T11:14:41.829Z</time>
      </trkpt>
      <trkpt lat="43.295055" lon="12.890000">
        <ele>752.356204</ele>
        <time>2022-02-14T11:14:54.878Z</time>
      </trkpt>
      <trkpt lat="43.295396" lon="12.890955">
        <ele>748.958227</ele>
        <time>2022-02-14T11:15:07.415Z</time>
      </trkpt>
      <trkpt lat="43.295785" lon="12.891711">
        <ele>746.000735</ele>
        <time>2022-02-14T11:15:18.343Z</time>
      </trkpt>
      <trkpt lat="43.295673" lon="12.891662">
        <ele>745.484858</ele>
        <time>2022-02-14T11:15:20.303Z</time>
      </trkpt>
      <trkpt lat="43.294702" lon="12.890473">
        <ele>738.959997</ele>
        <time>2022-02-14T11:15:43.742Z</time>
      </trkpt>
      <trkpt lat="43.294314" lon="12.889663">
        <ele>735.280875</ele>
        <time>2022-02-14T11:15:56.279Z</time>
      </trkpt>
      <trkpt lat="43.294294" lon="12.889083">
        <ele>732.822301</ele>
        <time>2022-02-14T11:16:03.897Z</time>
      </trkpt>
      <trkpt lat="43.294172" lon="12.889068">
        <ele>732.109737</ele>
        <time>2022-02-14T11:16:06.109Z</time>
      </trkpt>
      <trkpt lat="43.293728" lon="12.891448">
        <ele>721.253791</ele>
        <time>2022-02-14T11:16:36.997Z</time>
      </trkpt>
      <trkpt lat="43.293395" lon="12.891115">
        <ele>718.587257</ele>
        <time>2022-02-14T11:17:04.438Z</time>
      </trkpt>
      <trkpt lat="43.293022" lon="12.891332">
        <ele>715.964776</ele>
        <time>2022-02-14T11:17:31.170Z</time>
      </trkpt>
      <trkpt lat="43.292803" lon="12.891246">
        <ele>714.490132</ele>
        <time>2022-02-14T11:17:46.262Z</time>
      </trkpt>
      <trkpt lat="43.292458" lon="12.890521">
        <ele>710.099100</ele>
        <time>2022-02-14T11:18:28.218Z</time>
      </trkpt>
      <trkpt lat="43.292358" lon="12.890313">
        <ele>708.825270</ele>
        <time>2022-02-14T11:18:39.765Z</time>
      </trkpt>
      <trkpt lat="43.292327" lon="12.890045">
        <ele>707.438581</ele>
        <time>2022-02-14T11:18:53.288Z</time>
      </trkpt>
      <trkpt lat="43.292142" lon="12.889859">
        <ele>705.829127</ele>
        <time>2022-02-14T11:19:07.926Z</time>
      </trkpt>
      <trkpt lat="43.292226" lon="12.889883">
        <ele>705.226774</ele>
        <time>2022-02-14T11:19:09.457Z</time>
      </trkpt>
      <trkpt lat="43.292361" lon="12.889770">
        <ele>704.116937</ele>
        <time>2022-02-14T11:19:12.009Z</time>
      </trkpt>
      <trkpt lat="43.292440" lon="12.889396">
        <ele>702.126915</ele>
        <time>2022-02-14T11:19:16.759Z</time>
      </trkpt>
      <trkpt lat="43.293097" lon="12.887769">
        <ele>696.374146</ele>
        <time>2022-02-14T11:19:40.583Z</time>
      </trkpt>
      <trkpt lat="43.293659" lon="12.886897">
        <ele>694.858911</ele>
        <time>2022-02-14T11:20:00.479Z</time>
      </trkpt>
      <trkpt lat="43.294545" lon="12.885752">
        <ele>697.517537</ele>
        <time>2022-02-14T11:20:49.873Z</time>
      </trkpt>
      <trkpt lat="43.295511" lon="12.885189">
        <ele>701.287641</ele>
        <time>2022-02-14T11:21:30.301Z</time>
      </trkpt>
      <trkpt lat="43.295974" lon="12.884189">
        <ele>704.820404</ele>
        <time>2022-02-14T11:22:09.088Z</time>
      </trkpt>
      <trkpt lat="43.296263" lon="12.883690">
        <ele>707.877909</ele>
        <time>2022-02-14T11:22:36.617Z</time>
      </trkpt>
      <trkpt lat="43.296736" lon="12.883545">
        <ele>711.723135</ele>
        <time>2022-02-14T11:23:08.742Z</time>
      </trkpt>
      <trkpt lat="43.296961" lon="12.883605">
        <ele>713.541678</ele>
        <time>2022-02-14T11:23:24.248Z</time>
      </trkpt>
      <trkpt lat="43.297076" lon="12.883641">
        <ele>714.477511</ele>
        <time>2022-02-14T11:23:32.679Z</time>
      </trkpt>
      <trkpt lat="43.298043" lon="12.884016">
        <ele>721.534347</ele>
        <time>2022-02-14T11:24:43.278Z</time>
      </trkpt>
      <trkpt lat="43.299332" lon="12.884783">
        <ele>728.888773</ele>
        <time>2022-02-14T11:25:51.876Z</time>
      </trkpt>
      <trkpt lat="43.299459" lon="12.884886">
        <ele>729.151768</ele>
        <time>2022-02-14T11:25:56.376Z</time>
      </trkpt>
      <trkpt lat="43.299800" lon="12.885159">
        <ele>729.050978</ele>
        <time>2022-02-14T11:26:07.652Z</time>
      </trkpt>
      <trkpt lat="43.301690" lon="12.886908">
        <ele>725.660220</ele>
        <time>2022-02-14T11:26:57.069Z</time>
      </trkpt>
      <trkpt lat="43.302826" lon="12.887755">
        <ele>719.180122</ele>
        <time>2022-02-14T11:27:20.159Z</time>
      </trkpt>
      <trkpt lat="43.303189" lon="12.887884">
        <ele>716.046742</ele>
        <time>2022-02-14T11:27:26.498Z</time>
      </trkpt>
      <trkpt lat="43.303813" lon="12.888399">
        <ele>709.963722</ele>
        <time>2022-02-14T11:27:38.008Z</time>
      </trkpt>
      <trkpt lat="43.304465" lon="12.888683">
        <ele>701.442474</ele>
        <time>2022-02-14T11:27:49.109Z</time>
      </trkpt>
      <trkpt lat="43.304637" lon="12.888652">
        <ele>698.909821</ele>
        <time>2022-02-14T11:27:52.024Z</time>
      </trkpt>
      <trkpt lat="43.304714" lon="12.888564">
        <ele>697.447664</ele>
        <time>2022-02-14T11:27:53.504Z</time>
      </trkpt>
      <trkpt lat="43.304814" lon="12.888447">
        <ele>695.530193</ele>
        <time>2022-02-14T11:27:55.490Z</time>
      </trkpt>
      <trkpt lat="43.304767" lon="12.888381">
        <ele>694.549098</ele>
        <time>2022-02-14T11:27:56.605Z</time>
      </trkpt>
      <trkpt lat="43.304585" lon="12.888381">
        <ele>691.891956</ele>
        <time>2022-02-14T11:28:00.953Z</time>
      </trkpt>
      <trkpt lat="43.304237" lon="12.888180">
        <ele>686.380708</ele>
        <time>2022-02-14T11:28:09.956Z</time>
      </trkpt>
      <trkpt lat="43.303951" lon="12.887899">
        <ele>680.959385</ele>
        <time>2022-02-14T11:28:18.182Z</time>
      </trkpt>
      <trkpt lat="43.303887" lon="12.887685">
        <ele>677.072220</ele>
        <time>2022-02-14T11:28:22.117Z</time>
      </trkpt>
      <trkpt lat="43.303864" lon="12.887626">
        <ele>675.947700</ele>
        <time>2022-02-14T11:28:22.863Z</time>
      </trkpt>
      <trkpt lat="43.303976" lon="12.887314">
        <ele>670.102756</ele>
        <time>2022-02-14T11:28:26.569Z</time>
      </trkpt>
      <trkpt lat="43.303677" lon="12.885916">
        <ele>645.621664</ele>
        <time>2022-02-14T11:28:42.051Z</time>
      </trkpt>
      <trkpt lat="43.303226" lon="12.882923">
        <ele>590.804491</ele>
        <time>2022-02-14T11:29:14.691Z</time>
      </trkpt>
      <trkpt lat="43.302991" lon="12.882195">
        <ele>580.311241</ele>
        <time>2022-02-14T11:29:23.218Z</time>
      </trkpt>
      <trkpt lat="43.302887" lon="12.881531">
        <ele>571.362172</ele>
        <time>2022-02-14T11:29:30.592Z</time>
      </trkpt>
      <trkpt lat="43.302538" lon="12.880117">
        <ele>555.278241</ele>
        <time>2022-02-14T11:29:47.489Z</time>
      </trkpt>
      <trkpt lat="43.302489" lon="12.880002">
        <ele>554.151332</ele>
        <time>2022-02-14T11:29:49.007Z</time>
      </trkpt>
      <trkpt lat="43.302400" lon="12.879947">
        <ele>553.017376</ele>
        <time>2022-02-14T11:29:50.520Z</time>
      </trkpt>
      <trkpt lat="43.302467" lon="12.880500">
        <ele>548.276618</ele>
        <time>2022-02-14T11:29:56.946Z</time>
      </trkpt>
      <trkpt lat="43.302459" lon="12.881368">
        <ele>540.935870</ele>
        <time>2022-02-14T11:30:07.073Z</time>
      </trkpt>
      <trkpt lat="43.302287" lon="12.880708">
        <ele>534.507670</ele>
        <time>2022-02-14T11:30:19.902Z</time>
      </trkpt>
      <trkpt lat="43.302081" lon="12.880196">
        <ele>529.134013</ele>
        <time>2022-02-14T11:30:30.493Z</time>
      </trkpt>
      <trkpt lat="43.301817" lon="12.879798">
        <ele>524.187644</ele>
        <time>2022-02-14T11:30:40.030Z</time>
      </trkpt>
      <trkpt lat="43.301297" lon="12.879343">
        <ele>516.642107</ele>
        <time>2022-02-14T11:30:55.012Z</time>
      </trkpt>
      <trkpt lat="43.300484" lon="12.878185">
        <ele>503.907085</ele>
        <time>2022-02-14T11:31:24.738Z</time>
      </trkpt>
      <trkpt lat="43.300096" lon="12.877089">
        <ele>495.655741</ele>
        <time>2022-02-14T11:31:47.949Z</time>
      </trkpt>
      <trkpt lat="43.299788" lon="12.876542">
        <ele>491.963768</ele>
        <time>2022-02-14T11:32:01.519Z</time>
      </trkpt>
      <trkpt lat="43.299624" lon="12.876419">
        <ele>490.593279</ele>
        <time>2022-02-14T11:32:06.652Z</time>
      </trkpt>
      <trkpt lat="43.299347" lon="12.875950">
        <ele>487.368890</ele>
        <time>2022-02-14T11:32:18.983Z</time>
      </trkpt>
      <trkpt lat="43.299240" lon="12.875858">
        <ele>486.443038</ele>
        <time>2022-02-14T11:32:22.537Z</time>
      </trkpt>
      <trkpt lat="43.298806" lon="12.875620">
        <ele>482.812890</ele>
        <time>2022-02-14T11:32:35.506Z</time>
      </trkpt>
      <trkpt lat="43.298480" lon="12.875649">
        <ele>480.209032</ele>
        <time>2022-02-14T11:32:44.339Z</time>
      </trkpt>
      <trkpt lat="43.298182" lon="12.875447">
        <ele>477.560472</ele>
        <time>2022-02-14T11:32:53.180Z</time>
      </trkpt>
      <trkpt lat="43.297820" lon="12.874890">
        <ele>473.228542</ele>
        <time>2022-02-14T11:33:07.388Z</time>
      </trkpt>
      <trkpt lat="43.297717" lon="12.874362">
        <ele>470.157725</ele>
        <time>2022-02-14T11:33:17.718Z</time>
      </trkpt>
      <trkpt lat="43.297514" lon="12.874193">
        <ele>468.463504</ele>
        <time>2022-02-14T11:33:21.232Z</time>
      </trkpt>
      <trkpt lat="43.297368" lon="12.874153">
        <ele>467.400854</ele>
        <time>2022-02-14T11:33:23.328Z</time>
      </trkpt>
      <trkpt lat="43.297282" lon="12.874065">
        <ele>466.635465</ele>
        <time>2022-02-14T11:33:24.957Z</time>
      </trkpt>
      <trkpt lat="43.297145" lon="12.873785">
        <ele>464.882711</ele>
        <time>2022-02-14T11:33:28.517Z</time>
      </trkpt>
      <trkpt lat="43.297021" lon="12.873336">
        <ele>462.387864</ele>
        <time>2022-02-14T11:33:33.688Z</time>
      </trkpt>
      <trkpt lat="43.297460" lon="12.872906">
        <ele>458.539594</ele>
        <time>2022-02-14T11:33:42.495Z</time>
      </trkpt>
      <trkpt lat="43.297683" lon="12.872532">
        <ele>457.477180</ele>
        <time>2022-02-14T11:33:48.611Z</time>
      </trkpt>
      <trkpt lat="43.298179" lon="12.871657">
        <ele>455.598566</ele>
        <time>2022-02-14T11:34:03.865Z</time>
      </trkpt>
      <trkpt lat="43.298371" lon="12.871326">
        <ele>454.881620</ele>
        <time>2022-02-14T11:34:10.221Z</time>
      </trkpt>
      <trkpt lat="43.298508" lon="12.870958">
        <ele>454.181478</ele>
        <time>2022-02-14T11:34:16.440Z</time>
      </trkpt>
      <trkpt lat="43.298649" lon="12.869954">
        <ele>453.580222</ele>
        <time>2022-02-14T11:34:32.222Z</time>
      </trkpt>
      <trkpt lat="43.299522" lon="12.868871">
        <ele>452.799499</ele>
        <time>2022-02-14T11:34:58.405Z</time>
      </trkpt>
      <trkpt lat="43.300420" lon="12.868332">
        <ele>450.987525</ele>
        <time>2022-02-14T11:35:18.709Z</time>
      </trkpt>
      <trkpt lat="43.300527" lon="12.868268">
        <ele>450.771742</ele>
        <time>2022-02-14T11:35:21.236Z</time>
      </trkpt>
      <trkpt lat="43.302118" lon="12.866659">
        <ele>444.160975</ele>
        <time>2022-02-14T11:35:56.102Z</time>
      </trkpt>
      <trkpt lat="43.302586" lon="12.866071">
        <ele>441.389788</ele>
        <time>2022-02-14T11:36:06.458Z</time>
      </trkpt>
      <trkpt lat="43.303276" lon="12.864687">
        <ele>434.986533</ele>
        <time>2022-02-14T11:36:26.436Z</time>
      </trkpt>
      <trkpt lat="43.303501" lon="12.864086">
        <ele>432.524342</ele>
        <time>2022-02-14T11:36:34.651Z</time>
      </trkpt>
      <trkpt lat="43.303658" lon="12.863341">
        <ele>430.609140</ele>
        <time>2022-02-14T11:36:44.232Z</time>
      </trkpt>
      <trkpt lat="43.303833" lon="12.861097">
        <ele>426.198995</ele>
        <time>2022-02-14T11:37:14.431Z</time>
      </trkpt>
      <trkpt lat="43.303996" lon="12.860472">
        <ele>425.750726</ele>
        <time>2022-02-14T11:37:24.256Z</time>
      </trkpt>
      <trkpt lat="43.304094" lon="12.860253">
        <ele>425.577143</ele>
        <time>2022-02-14T11:37:28.283Z</time>
      </trkpt>
      <trkpt lat="43.304094" lon="12.860253">
        <ele>425.577143</ele>
        <time>2022-02-14T11:37:28.318Z</time>
      </trkpt>
      <trkpt lat="43.304660" lon="12.859763">
        <ele>424.984659</ele>
        <time>2022-02-14T11:37:44.388Z</time>
      </trkpt>
      <trkpt lat="43.304839" lon="12.859684">
        <ele>425.245759</ele>
        <time>2022-02-14T11:37:49.583Z</time>
      </trkpt>
      <trkpt lat="43.305194" lon="12.859672">
        <ele>425.738928</ele>
        <time>2022-02-14T11:38:00.542Z</time>
      </trkpt>
      <trkpt lat="43.305476" lon="12.859747">
        <ele>426.137834</ele>
        <time>2022-02-14T11:38:09.932Z</time>
      </trkpt>
      <trkpt lat="43.305711" lon="12.859965">
        <ele>426.531603</ele>
        <time>2022-02-14T11:38:18.906Z</time>
      </trkpt>
      <trkpt lat="43.306840" lon="12.860510">
        <ele>427.941795</ele>
        <time>2022-02-14T11:38:56.037Z</time>
      </trkpt>
      <trkpt lat="43.307173" lon="12.860751">
        <ele>428.283723</ele>
        <time>2022-02-14T11:39:07.631Z</time>
      </trkpt>
      <trkpt lat="43.307379" lon="12.860901">
        <ele>428.495527</ele>
        <time>2022-02-14T11:39:14.136Z</time>
      </trkpt>
      <trkpt lat="43.308185" lon="12.861676">
        <ele>428.537470</ele>
        <time>2022-02-14T11:39:38.395Z</time>
      </trkpt>
      <trkpt lat="43.309264" lon="12.862352">
        <ele>426.444335</ele>
        <time>2022-02-14T11:40:01.492Z</time>
      </trkpt>
      <trkpt lat="43.310094" lon="12.862541">
        <ele>422.715688</ele>
        <time>2022-02-14T11:40:16.298Z</time>
      </trkpt>
      <trkpt lat="43.310897" lon="12.862583">
        <ele>418.001790</ele>
        <time>2022-02-14T11:40:29.076Z</time>
      </trkpt>
      <trkpt lat="43.311776" lon="12.862716">
        <ele>411.351943</ele>
        <time>2022-02-14T11:40:42.778Z</time>
      </trkpt>
      <trkpt lat="43.311862" lon="12.862626">
        <ele>410.355572</ele>
        <time>2022-02-14T11:40:44.373Z</time>
      </trkpt>
      <trkpt lat="43.312135" lon="12.862345">
        <ele>407.211664</ele>
        <time>2022-02-14T11:40:49.572Z</time>
      </trkpt>
      <trkpt lat="43.312511" lon="12.862345">
        <ele>403.745863</ele>
        <time>2022-02-14T11:40:55.215Z</time>
      </trkpt>
      <trkpt lat="43.312886" lon="12.862672">
        <ele>399.652225</ele>
        <time>2022-02-14T11:41:01.757Z</time>
      </trkpt>
      <trkpt lat="43.313391" lon="12.862834">
        <ele>395.261705</ele>
        <time>2022-02-14T11:41:09.326Z</time>
      </trkpt>
      <trkpt lat="43.313854" lon="12.863174">
        <ele>390.903400</ele>
        <time>2022-02-14T11:41:17.406Z</time>
      </trkpt>
      <trkpt lat="43.314122" lon="12.863136">
        <ele>388.666555</ele>
        <time>2022-02-14T11:41:21.566Z</time>
      </trkpt>
      <trkpt lat="43.314301" lon="12.863418">
        <ele>386.405909</ele>
        <time>2022-02-14T11:41:25.599Z</time>
      </trkpt>
      <trkpt lat="43.314680" lon="12.863639">
        <ele>383.437375</ele>
        <time>2022-02-14T11:41:31.835Z</time>
      </trkpt>
      <trkpt lat="43.314955" lon="12.863656">
        <ele>382.327417</ele>
        <time>2022-02-14T11:41:36.105Z</time>
      </trkpt>
      <trkpt lat="43.315723" lon="12.863527">
        <ele>379.207700</ele>
        <time>2022-02-14T11:41:48.783Z</time>
      </trkpt>
      <trkpt lat="43.316206" lon="12.863546">
        <ele>377.259383</ele>
        <time>2022-02-14T11:41:57.493Z</time>
      </trkpt>
      <trkpt lat="43.316570" lon="12.863812">
        <ele>376.353069</ele>
        <time>2022-02-14T11:42:04.674Z</time>
      </trkpt>
      <trkpt lat="43.317625" lon="12.866160">
        <ele>376.776073</ele>
        <time>2022-02-14T11:42:45.033Z</time>
      </trkpt>
      <trkpt lat="43.316918" lon="12.867282">
        <ele>381.477013</ele>
        <time>2022-02-14T11:43:59.457Z</time>
      </trkpt>
      <trkpt lat="43.316795" lon="12.867302">
        <ele>382.016168</ele>
        <time>2022-02-14T11:44:09.758Z</time>
      </trkpt>
      <trkpt lat="43.316746" lon="12.867309">
        <ele>382.230615</ele>
        <time>2022-02-14T11:44:13.905Z</time>
      </trkpt>
      <trkpt lat="43.316586" lon="12.868178">
        <ele>384.539748</ele>
        <time>2022-02-14T11:44:57.501Z</time>
      </trkpt>
      <trkpt lat="43.316457" lon="12.868862">
        <ele>386.297118</ele>
        <time>2022-02-14T11:45:27.828Z</time>
      </trkpt>
      <trkpt lat="43.316374" lon="12.869189">
        <ele>387.158456</ele>
        <time>2022-02-14T11:45:41.091Z</time>
      </trkpt>
      <trkpt lat="43.315971" lon="12.870784">
        <ele>388.581302</ele>
        <time>2022-02-14T11:46:24.003Z</time>
      </trkpt>
      <trkpt lat="43.315998" lon="12.870939">
        <ele>388.555609</ele>
        <time>2022-02-14T11:46:27.742Z</time>
      </trkpt>
      <trkpt lat="43.316126" lon="12.870855">
        <ele>388.524182</ele>
        <time>2022-02-14T11:46:32.473Z</time>
      </trkpt>
      <trkpt lat="43.316170" lon="12.870972">
        <ele>388.502951</ele>
        <time>2022-02-14T11:46:36.077Z</time>
      </trkpt>
      <trkpt lat="43.316143" lon="12.871420">
        <ele>388.430484</ele>
        <time>2022-02-14T11:46:48.202Z</time>
      </trkpt>
      <trkpt lat="43.316254" lon="12.872814">
        <ele>389.432224</ele>
        <time>2022-02-14T11:47:31.065Z</time>
      </trkpt>
      <trkpt lat="43.316521" lon="12.873084">
        <ele>389.970666</ele>
        <time>2022-02-14T11:47:46.664Z</time>
      </trkpt>
      <trkpt lat="43.316691" lon="12.873838">
        <ele>390.903575</ele>
        <time>2022-02-14T11:48:14.461Z</time>
      </trkpt>
      <trkpt lat="43.316825" lon="12.873972">
        <ele>391.172753</ele>
        <time>2022-02-14T11:48:22.440Z</time>
      </trkpt>
      <trkpt lat="43.316839" lon="12.874076">
        <ele>391.304899</ele>
        <time>2022-02-14T11:48:26.234Z</time>
      </trkpt>
      <trkpt lat="43.316996" lon="12.874346">
        <ele>391.833441</ele>
        <time>2022-02-14T11:48:38.146Z</time>
      </trkpt>
      <trkpt lat="43.316944" lon="12.875429">
        <ele>393.493151</ele>
        <time>2022-02-14T11:49:13.397Z</time>
      </trkpt>
      <trkpt lat="43.316878" lon="12.875628">
        <ele>393.827584</ele>
        <time>2022-02-14T11:49:20.517Z</time>
      </trkpt>
      <trkpt lat="43.316820" lon="12.876217">
        <ele>394.736488</ele>
        <time>2022-02-14T11:49:40.643Z</time>
      </trkpt>
      <trkpt lat="43.316738" lon="12.876400">
        <ele>395.074544</ele>
        <time>2022-02-14T11:49:48.252Z</time>
      </trkpt>
      <trkpt lat="43.316800" lon="12.876622">
        <ele>395.738449</ele>
        <time>2022-02-14T11:49:57.910Z</time>
      </trkpt>
      <trkpt lat="43.317037" lon="12.876966">
        <ele>397.061142</ele>
        <time>2022-02-14T11:50:18.591Z</time>
      </trkpt>
      <trkpt lat="43.317274" lon="12.878255">
        <ele>400.773069</ele>
        <time>2022-02-14T11:51:14.924Z</time>
      </trkpt>
      <trkpt lat="43.317329" lon="12.878733">
        <ele>402.035804</ele>
        <time>2022-02-14T11:51:34.819Z</time>
      </trkpt>
      <trkpt lat="43.317428" lon="12.878941">
        <ele>402.365564</ele>
        <time>2022-02-14T11:51:44.987Z</time>
      </trkpt>
      <trkpt lat="43.317493" lon="12.880212">
        <ele>404.055973</ele>
        <time>2022-02-14T11:52:34.279Z</time>
      </trkpt>
      <trkpt lat="43.317655" lon="12.880605">
        <ele>404.655238</ele>
        <time>2022-02-14T11:52:49.269Z</time>
      </trkpt>
      <trkpt lat="43.317838" lon="12.880894">
        <ele>405.163534</ele>
        <time>2022-02-14T11:52:58.747Z</time>
      </trkpt>
      <trkpt lat="43.318030" lon="12.881494">
        <ele>402.737618</ele>
        <time>2022-02-14T11:53:14.122Z</time>
      </trkpt>
      <trkpt lat="43.318741" lon="12.884163">
        <ele>387.542412</ele>
        <time>2022-02-14T11:54:10.003Z</time>
      </trkpt>
      <trkpt lat="43.319216" lon="12.885100">
        <ele>378.817172</ele>
        <time>2022-02-14T11:54:30.371Z</time>
      </trkpt>
      <trkpt lat="43.319772" lon="12.885492">
        <ele>373.368864</ele>
        <time>2022-02-14T11:54:46.341Z</time>
      </trkpt>
      <trkpt lat="43.319824" lon="12.885520">
        <ele>372.953380</ele>
        <time>2022-02-14T11:54:47.728Z</time>
      </trkpt>
      <trkpt lat="43.319879" lon="12.885540">
        <ele>372.530125</ele>
        <time>2022-02-14T11:54:49.148Z</time>
      </trkpt>
      <trkpt lat="43.320133" lon="12.885582">
        <ele>370.626846</ele>
        <time>2022-02-14T11:54:55.872Z</time>
      </trkpt>
      <trkpt lat="43.320233" lon="12.885675">
        <ele>369.728597</ele>
        <time>2022-02-14T11:54:58.954Z</time>
      </trkpt>
      <trkpt lat="43.320351" lon="12.885786">
        <ele>368.664827</ele>
        <time>2022-02-14T11:55:03.073Z</time>
      </trkpt>
      <trkpt lat="43.320424" lon="12.886072">
        <ele>367.024344</ele>
        <time>2022-02-14T11:55:08.925Z</time>
      </trkpt>
      <trkpt lat="43.320285" lon="12.886860">
        <ele>362.667353</ele>
        <time>2022-02-14T11:55:26.274Z</time>
      </trkpt>
      <trkpt lat="43.320364" lon="12.888125">
        <ele>359.533000</ele>
        <time>2022-02-14T11:55:57.272Z</time>
      </trkpt>
      <trkpt lat="43.320398" lon="12.888211">
        <ele>359.291373</ele>
        <time>2022-02-14T11:55:59.366Z</time>
      </trkpt>
      <trkpt lat="43.320491" lon="12.888443">
        <ele>358.637458</ele>
        <time>2022-02-14T11:56:05.279Z</time>
      </trkpt>
      <trkpt lat="43.320693" lon="12.888689">
        <ele>357.721698</ele>
        <time>2022-02-14T11:56:13.360Z</time>
      </trkpt>
      <trkpt lat="43.320941" lon="12.888850">
        <ele>356.791040</ele>
        <time>2022-02-14T11:56:21.159Z</time>
      </trkpt>
      <trkpt lat="43.321481" lon="12.889530">
        <ele>353.495218</ele>
        <time>2022-02-14T11:56:41.912Z</time>
      </trkpt>
      <trkpt lat="43.321515" lon="12.889570">
        <ele>353.289469</ele>
        <time>2022-02-14T11:56:43.199Z</time>
      </trkpt>
      <trkpt lat="43.321841" lon="12.889948">
        <ele>351.328683</ele>
        <time>2022-02-14T11:56:55.520Z</time>
      </trkpt>
      <trkpt lat="43.322146" lon="12.889787">
        <ele>349.826632</ele>
        <time>2022-02-14T11:57:04.996Z</time>
      </trkpt>
      <trkpt lat="43.322664" lon="12.891107">
        <ele>346.904541</ele>
        <time>2022-02-14T11:57:23.853Z</time>
      </trkpt>
      <trkpt lat="43.322854" lon="12.891478">
        <ele>346.292119</ele>
        <time>2022-02-14T11:57:29.819Z</time>
      </trkpt>
      <trkpt lat="43.323121" lon="12.891752">
        <ele>345.673891</ele>
        <time>2022-02-14T11:57:36.315Z</time>
      </trkpt>
      <trkpt lat="43.324714" lon="12.893441">
        <ele>346.350124</ele>
        <time>2022-02-14T11:58:25.124Z</time>
      </trkpt>
      <trkpt lat="43.326506" lon="12.895416">
        <ele>352.136909</ele>
        <time>2022-02-14T11:59:54.557Z</time>
      </trkpt>
      <trkpt lat="43.327171" lon="12.896074">
        <ele>352.716197</ele>
        <time>2022-02-14T12:00:18.903Z</time>
      </trkpt>
      <trkpt lat="43.327772" lon="12.896845">
        <ele>352.564350</ele>
        <time>2022-02-14T12:00:34.779Z</time>
      </trkpt>
      <trkpt lat="43.328425" lon="12.897425">
        <ele>349.991437</ele>
        <time>2022-02-14T12:00:47.786Z</time>
      </trkpt>
      <trkpt lat="43.329145" lon="12.898063">
        <ele>347.178431</ele>
        <time>2022-02-14T12:01:01.791Z</time>
      </trkpt>
      <trkpt lat="43.329907" lon="12.898740">
        <ele>345.285199</ele>
        <time>2022-02-14T12:01:17.444Z</time>
      </trkpt>
      <trkpt lat="43.330001" lon="12.898908">
        <ele>344.963480</ele>
        <time>2022-02-14T12:01:20.316Z</time>
      </trkpt>
      <trkpt lat="43.330354" lon="12.899575">
        <ele>343.711438</ele>
        <time>2022-02-14T12:01:32.242Z</time>
      </trkpt>
      <trkpt lat="43.330511" lon="12.899903">
        <ele>343.383932</ele>
        <time>2022-02-14T12:01:38.527Z</time>
      </trkpt>
      <trkpt lat="43.330915" lon="12.900794">
        <ele>343.022793</ele>
        <time>2022-02-14T12:01:56.282Z</time>
      </trkpt>
      <trkpt lat="43.331183" lon="12.901403">
        <ele>342.777968</ele>
        <time>2022-02-14T12:02:06.835Z</time>
      </trkpt>
      <trkpt lat="43.331346" lon="12.901786">
        <ele>342.625339</ele>
        <time>2022-02-14T12:02:13.348Z</time>
      </trkpt>
      <trkpt lat="43.331581" lon="12.902290">
        <ele>342.067864</ele>
        <time>2022-02-14T12:02:21.868Z</time>
      </trkpt>
      <trkpt lat="43.331590" lon="12.902350">
        <ele>342.008341</ele>
        <time>2022-02-14T12:02:22.740Z</time>
      </trkpt>
      <trkpt lat="43.331572" lon="12.902460">
        <ele>341.898792</ele>
        <time>2022-02-14T12:02:24.432Z</time>
      </trkpt>
      <trkpt lat="43.331598" lon="12.902519">
        <ele>341.831767</ele>
        <time>2022-02-14T12:02:25.408Z</time>
      </trkpt>
      <trkpt lat="43.331703" lon="12.902530">
        <ele>341.691107</ele>
        <time>2022-02-14T12:02:27.363Z</time>
      </trkpt>
      <trkpt lat="43.331744" lon="12.902557">
        <ele>341.630382</ele>
        <time>2022-02-14T12:02:28.200Z</time>
      </trkpt>
      <trkpt lat="43.333216" lon="12.905846">
        <ele>337.391477</ele>
        <time>2022-02-14T12:03:21.730Z</time>
      </trkpt>
      <trkpt lat="43.333685" lon="12.906894">
        <ele>335.711388</ele>
        <time>2022-02-14T12:03:37.770Z</time>
      </trkpt>
      <trkpt lat="43.333720" lon="12.906992">
        <ele>335.560997</ele>
        <time>2022-02-14T12:03:39.219Z</time>
      </trkpt>
      <trkpt lat="43.333716" lon="12.907053">
        <ele>335.476628</ele>
        <time>2022-02-14T12:03:40.080Z</time>
      </trkpt>
      <trkpt lat="43.333701" lon="12.907086">
        <ele>335.423024</ele>
        <time>2022-02-14T12:03:40.621Z</time>
      </trkpt>
      <trkpt lat="43.333699" lon="12.907134">
        <ele>335.356795</ele>
        <time>2022-02-14T12:03:41.301Z</time>
      </trkpt>
      <trkpt lat="43.333705" lon="12.907154">
        <ele>335.326994</ele>
        <time>2022-02-14T12:03:41.601Z</time>
      </trkpt>
      <trkpt lat="43.333737" lon="12.907194">
        <ele>335.245087</ele>
        <time>2022-02-14T12:03:42.378Z</time>
      </trkpt>
      <trkpt lat="43.333788" lon="12.907191">
        <ele>335.148413</ele>
        <time>2022-02-14T12:03:43.286Z</time>
      </trkpt>
      <trkpt lat="43.333820" lon="12.907141">
        <ele>335.056672</ele>
        <time>2022-02-14T12:03:44.121Z</time>
      </trkpt>
      <trkpt lat="43.333822" lon="12.907098">
        <ele>334.997318</ele>
        <time>2022-02-14T12:03:44.700Z</time>
      </trkpt>
      <trkpt lat="43.333844" lon="12.907048">
        <ele>334.916821</ele>
        <time>2022-02-14T12:03:45.488Z</time>
      </trkpt>
      <trkpt lat="43.334117" lon="12.906869">
        <ele>334.344019</ele>
        <time>2022-02-14T12:03:51.099Z</time>
      </trkpt>
      <trkpt lat="43.334193" lon="12.906819">
        <ele>334.184457</ele>
        <time>2022-02-14T12:03:52.699Z</time>
      </trkpt>
      <trkpt lat="43.334247" lon="12.906789">
        <ele>334.074157</ele>
        <time>2022-02-14T12:03:53.876Z</time>
      </trkpt>
      <trkpt lat="43.334366" lon="12.906709">
        <ele>333.849407</ele>
        <time>2022-02-14T12:03:56.428Z</time>
      </trkpt>
      <trkpt lat="43.334541" lon="12.906591">
        <ele>333.607702</ele>
        <time>2022-02-14T12:04:00.184Z</time>
      </trkpt>
      <trkpt lat="43.334641" lon="12.906457">
        <ele>333.434539</ele>
        <time>2022-02-14T12:04:03.392Z</time>
      </trkpt>
      <trkpt lat="43.334763" lon="12.906287">
        <ele>333.219135</ele>
        <time>2022-02-14T12:04:06.536Z</time>
      </trkpt>
      <trkpt lat="43.334951" lon="12.906024">
        <ele>332.886537</ele>
        <time>2022-02-14T12:04:12.675Z</time>
      </trkpt>
      <trkpt lat="43.335073" lon="12.905674">
        <ele>332.536472</ele>
        <time>2022-02-14T12:04:18.234Z</time>
      </trkpt>
      <trkpt lat="43.335366" lon="12.905153">
        <ele>331.942471</ele>
        <time>2022-02-14T12:04:27.926Z</time>
      </trkpt>
      <trkpt lat="43.335389" lon="12.905114">
        <ele>331.897185</ele>
        <time>2022-02-14T12:04:28.756Z</time>
      </trkpt>
      <trkpt lat="43.335150" lon="12.904854">
        <ele>331.559231</ele>
        <time>2022-02-14T12:04:35.845Z</time>
      </trkpt>
      <trkpt lat="43.335150" lon="12.904854">
        <ele>331.559231</ele>
        <time>2022-02-14T12:04:35.923Z</time>
      </trkpt>
      <trkpt lat="43.335150" lon="12.904854">
        <ele>331.559231</ele>
        <time>2022-02-14T12:04:35.923Z</time>
      </trkpt>
      <trkpt lat="43.335150" lon="12.904853">
        <ele>331.558571</ele>
        <time>2022-02-14T12:04:35.942Z</time>
      </trkpt>
      <trkpt lat="43.335151" lon="12.904851">
        <ele>331.556968</ele>
        <time>2022-02-14T12:04:35.987Z</time>
      </trkpt>
      <trkpt lat="43.335758" lon="12.904727">
        <ele>330.999797</ele>
        <time>2022-02-14T12:04:51.865Z</time>
      </trkpt>
      <trkpt lat="43.335914" lon="12.904408">
        <ele>330.745946</ele>
        <time>2022-02-14T12:04:57.914Z</time>
      </trkpt>
      <trkpt lat="43.335974" lon="12.904271">
        <ele>330.640338</ele>
        <time>2022-02-14T12:05:00.259Z</time>
      </trkpt>
      <trkpt lat="43.336036" lon="12.904144">
        <ele>330.539329</ele>
        <time>2022-02-14T12:05:02.989Z</time>
      </trkpt>
      <trkpt lat="43.336046" lon="12.904130">
        <ele>330.526371</ele>
        <time>2022-02-14T12:05:03.275Z</time>
      </trkpt>
      <trkpt lat="43.336161" lon="12.904018">
        <ele>330.398415</ele>
        <time>2022-02-14T12:05:06.123Z</time>
      </trkpt>
      <trkpt lat="43.336192" lon="12.903987">
        <ele>330.363612</ele>
        <time>2022-02-14T12:05:06.887Z</time>
      </trkpt>
      <trkpt lat="43.336258" lon="12.903921">
        <ele>330.289513</ele>
        <time>2022-02-14T12:05:08.515Z</time>
      </trkpt>
      <trkpt lat="43.336540" lon="12.903627">
        <ele>330.054157</ele>
        <time>2022-02-14T12:05:15.716Z</time>
      </trkpt>
      <trkpt lat="43.336554" lon="12.903605">
        <ele>330.059522</ele>
        <time>2022-02-14T12:05:16.127Z</time>
      </trkpt>
      <trkpt lat="43.336825" lon="12.903257">
        <ele>330.153100</ele>
        <time>2022-02-14T12:05:24.345Z</time>
      </trkpt>
      <trkpt lat="43.336825" lon="12.903257">
        <ele>330.153100</ele>
        <time>2022-02-14T12:05:24.453Z</time>
      </trkpt>
      <trkpt lat="43.336825" lon="12.903257">
        <ele>330.153100</ele>
        <time>2022-02-14T12:05:24.453Z</time>
      </trkpt>
      <trkpt lat="43.336308" lon="12.904013">
        <ele>330.343565</ele>
        <time>2022-02-14T12:05:43.971Z</time>
      </trkpt>
      <trkpt lat="43.335791" lon="12.904768">
        <ele>330.766040</ele>
        <time>2022-02-14T12:06:03.475Z</time>
      </trkpt>
      <trkpt lat="43.335275" lon="12.905524">
        <ele>331.948156</ele>
        <time>2022-02-14T12:06:22.975Z</time>
      </trkpt>
      <trkpt lat="43.334763" lon="12.906287">
        <ele>333.131849</ele>
        <time>2022-02-14T12:06:42.503Z</time>
      </trkpt>
      <trkpt lat="43.334641" lon="12.906457">
        <ele>333.626169</ele>
        <time>2022-02-14T12:06:48.869Z</time>
      </trkpt>
      <trkpt lat="43.334541" lon="12.906591">
        <ele>334.355826</ele>
        <time>2022-02-14T12:06:54.376Z</time>
      </trkpt>
      <trkpt lat="43.334366" lon="12.906709">
        <ele>335.374298</ele>
        <time>2022-02-14T12:07:02.129Z</time>
      </trkpt>
      <trkpt lat="43.334247" lon="12.906789">
        <ele>336.066458</ele>
        <time>2022-02-14T12:07:07.705Z</time>
      </trkpt>
      <trkpt lat="43.334193" lon="12.906819">
        <ele>336.370787</ele>
        <time>2022-02-14T12:07:10.271Z</time>
      </trkpt>
      <trkpt lat="43.334117" lon="12.906869">
        <ele>336.811031</ele>
        <time>2022-02-14T12:07:13.944Z</time>
      </trkpt>
      <trkpt lat="43.333844" lon="12.907048">
        <ele>338.391442</ele>
        <time>2022-02-14T12:07:27.895Z</time>
      </trkpt>
      <trkpt lat="43.333804" lon="12.907052">
        <ele>338.601004</ele>
        <time>2022-02-14T12:07:29.869Z</time>
      </trkpt>
      <trkpt lat="43.333759" lon="12.907028">
        <ele>338.853212</ele>
        <time>2022-02-14T12:07:32.116Z</time>
      </trkpt>
      <trkpt lat="43.333716" lon="12.907053">
        <ele>339.097162</ele>
        <time>2022-02-14T12:07:34.463Z</time>
      </trkpt>
      <trkpt lat="43.333701" lon="12.907086">
        <ele>339.245060</ele>
        <time>2022-02-14T12:07:35.867Z</time>
      </trkpt>
      <trkpt lat="43.333699" lon="12.907134">
        <ele>339.427792</ele>
        <time>2022-02-14T12:07:37.655Z</time>
      </trkpt>
      <trkpt lat="43.333705" lon="12.907154">
        <ele>339.510017</ele>
        <time>2022-02-14T12:07:38.456Z</time>
      </trkpt>
      <trkpt lat="43.333698" lon="12.907219">
        <ele>339.759753</ele>
        <time>2022-02-14T12:07:40.884Z</time>
      </trkpt>
      <trkpt lat="43.333100" lon="12.908610">
        <ele>347.508577</ele>
        <time>2022-02-14T12:08:52.354Z</time>
      </trkpt>
      <trkpt lat="43.332830" lon="12.909269">
        <ele>351.830418</ele>
        <time>2022-02-14T12:09:28.092Z</time>
      </trkpt>
      <trkpt lat="43.332668" lon="12.909664">
        <ele>354.421538</ele>
        <time>2022-02-14T12:09:48.677Z</time>
      </trkpt>
      <trkpt lat="43.332521" lon="12.910032">
        <ele>356.820549</ele>
        <time>2022-02-14T12:10:06.964Z</time>
      </trkpt>
      <trkpt lat="43.332329" lon="12.910516">
        <ele>359.460847</ele>
        <time>2022-02-14T12:10:30.370Z</time>
      </trkpt>
      <trkpt lat="43.332277" lon="12.910646">
        <ele>360.170660</ele>
        <time>2022-02-14T12:10:36.391Z</time>
      </trkpt>
      <trkpt lat="43.332036" lon="12.911254">
        <ele>363.483462</ele>
        <time>2022-02-14T12:11:04.707Z</time>
      </trkpt>
      <trkpt lat="43.331876" lon="12.911650">
        <ele>365.650764</ele>
        <time>2022-02-14T12:11:22.083Z</time>
      </trkpt>
      <trkpt lat="43.331552" lon="12.912448">
        <ele>369.847263</ele>
        <time>2022-02-14T12:11:55.825Z</time>
      </trkpt>
      <trkpt lat="43.331439" lon="12.912729">
        <ele>371.184041</ele>
        <time>2022-02-14T12:12:08.362Z</time>
      </trkpt>
      <trkpt lat="43.331317" lon="12.913031">
        <ele>372.622263</ele>
        <time>2022-02-14T12:12:21.669Z</time>
      </trkpt>
      <trkpt lat="43.331285" lon="12.913110">
        <ele>372.998727</ele>
        <time>2022-02-14T12:12:25.135Z</time>
      </trkpt>
      <trkpt lat="43.331022" lon="12.913758">
        <ele>376.088133</ele>
        <time>2022-02-14T12:12:52.452Z</time>
      </trkpt>
      <trkpt lat="43.330895" lon="12.914071">
        <ele>377.580296</ele>
        <time>2022-02-14T12:13:05.605Z</time>
      </trkpt>
      <trkpt lat="43.330796" lon="12.914330">
        <ele>378.798430</ele>
        <time>2022-02-14T12:13:16.124Z</time>
      </trkpt>
      <trkpt lat="43.330719" lon="12.914619">
        <ele>379.776319</ele>
        <time>2022-02-14T12:13:27.185Z</time>
      </trkpt>
      <trkpt lat="43.330796" lon="12.914856">
        <ele>380.563488</ele>
        <time>2022-02-14T12:13:36.378Z</time>
      </trkpt>
      <trkpt lat="43.331157" lon="12.915378">
        <ele>382.747788</ele>
        <time>2022-02-14T12:13:59.978Z</time>
      </trkpt>
      <trkpt lat="43.331199" lon="12.915439">
        <ele>383.002508</ele>
        <time>2022-02-14T12:14:02.355Z</time>
      </trkpt>
      <trkpt lat="43.331519" lon="12.915902">
        <ele>384.939350</ele>
        <time>2022-02-14T12:14:21.276Z</time>
      </trkpt>
      <trkpt lat="43.331767" lon="12.916262">
        <ele>386.442984</ele>
        <time>2022-02-14T12:14:34.769Z</time>
      </trkpt>
      <trkpt lat="43.331795" lon="12.916426">
        <ele>386.705555</ele>
        <time>2022-02-14T12:14:39.309Z</time>
      </trkpt>
      <trkpt lat="43.331743" lon="12.916538">
        <ele>386.905462</ele>
        <time>2022-02-14T12:14:42.712Z</time>
      </trkpt>
      <trkpt lat="43.331675" lon="12.916564">
        <ele>387.051451</ele>
        <time>2022-02-14T12:14:45.311Z</time>
      </trkpt>
      <trkpt lat="43.331136" lon="12.916486">
        <ele>388.172471</ele>
        <time>2022-02-14T12:15:06.247Z</time>
      </trkpt>
      <trkpt lat="43.330879" lon="12.916437">
        <ele>388.709134</ele>
        <time>2022-02-14T12:15:15.578Z</time>
      </trkpt>
      <trkpt lat="43.330536" lon="12.916373">
        <ele>389.425096</ele>
        <time>2022-02-14T12:15:26.760Z</time>
      </trkpt>
      <trkpt lat="43.330120" lon="12.916302">
        <ele>390.074179</ele>
        <time>2022-02-14T12:15:36.002Z</time>
      </trkpt>
      <trkpt lat="43.329945" lon="12.916330">
        <ele>389.721519</ele>
        <time>2022-02-14T12:15:39.941Z</time>
      </trkpt>
      <trkpt lat="43.329547" lon="12.917185">
        <ele>388.243500</ele>
        <time>2022-02-14T12:15:54.411Z</time>
      </trkpt>
      <trkpt lat="43.329294" lon="12.917359">
        <ele>387.677234</ele>
        <time>2022-02-14T12:15:59.632Z</time>
      </trkpt>
      <trkpt lat="43.329201" lon="12.917354">
        <ele>387.490935</ele>
        <time>2022-02-14T12:16:01.194Z</time>
      </trkpt>
      <trkpt lat="43.329039" lon="12.917284">
        <ele>387.151021</ele>
        <time>2022-02-14T12:16:04.065Z</time>
      </trkpt>
      <trkpt lat="43.328405" lon="12.916769">
        <ele>384.543390</ele>
        <time>2022-02-14T12:16:15.833Z</time>
      </trkpt>
      <trkpt lat="43.327971" lon="12.916482">
        <ele>382.370674</ele>
        <time>2022-02-14T12:16:23.401Z</time>
      </trkpt>
      <trkpt lat="43.327730" lon="12.916442">
        <ele>381.275528</ele>
        <time>2022-02-14T12:16:27.227Z</time>
      </trkpt>
      <trkpt lat="43.327033" lon="12.916477">
        <ele>378.254871</ele>
        <time>2022-02-14T12:16:38.757Z</time>
      </trkpt>
      <trkpt lat="43.326767" lon="12.916407">
        <ele>377.488598</ele>
        <time>2022-02-14T12:16:43.308Z</time>
      </trkpt>
      <trkpt lat="43.326283" lon="12.916097">
        <ele>375.977844</ele>
        <time>2022-02-14T12:16:52.217Z</time>
      </trkpt>
      <trkpt lat="43.325271" lon="12.916099">
        <ele>373.334208</ele>
        <time>2022-02-14T12:17:10.512Z</time>
      </trkpt>
      <trkpt lat="43.324941" lon="12.915983">
        <ele>373.175092</ele>
        <time>2022-02-14T12:17:17.352Z</time>
      </trkpt>
      <trkpt lat="43.324522" lon="12.915687">
        <ele>372.955028</ele>
        <time>2022-02-14T12:17:27.109Z</time>
      </trkpt>
      <trkpt lat="43.323918" lon="12.915230">
        <ele>372.632959</ele>
        <time>2022-02-14T12:17:41.985Z</time>
      </trkpt>
      <trkpt lat="43.323686" lon="12.915167">
        <ele>372.569538</ele>
        <time>2022-02-14T12:17:48.367Z</time>
      </trkpt>
      <trkpt lat="43.323264" lon="12.915393">
        <ele>373.023895</ele>
        <time>2022-02-14T12:18:00.287Z</time>
      </trkpt>
      <trkpt lat="43.322984" lon="12.915356">
        <ele>373.306093</ele>
        <time>2022-02-14T12:18:08.569Z</time>
      </trkpt>
      <trkpt lat="43.322535" lon="12.915062">
        <ele>373.805037</ele>
        <time>2022-02-14T12:18:22.088Z</time>
      </trkpt>
      <trkpt lat="43.322452" lon="12.915079">
        <ele>373.889224</ele>
        <time>2022-02-14T12:18:24.926Z</time>
      </trkpt>
      <trkpt lat="43.322141" lon="12.915145">
        <ele>374.204923</ele>
        <time>2022-02-14T12:18:32.548Z</time>
      </trkpt>
      <trkpt lat="43.320455" lon="12.916674">
        <ele>377.208264</ele>
        <time>2022-02-14T12:19:33.216Z</time>
      </trkpt>
      <trkpt lat="43.320352" lon="12.916890">
        <ele>377.543734</ele>
        <time>2022-02-14T12:19:39.336Z</time>
      </trkpt>
      <trkpt lat="43.320341" lon="12.917000">
        <ele>377.687961</ele>
        <time>2022-02-14T12:19:41.890Z</time>
      </trkpt>
      <trkpt lat="43.320633" lon="12.919487">
        <ele>381.198109</ele>
        <time>2022-02-14T12:20:39.059Z</time>
      </trkpt>
      <trkpt lat="43.320723" lon="12.919736">
        <ele>381.683422</ele>
        <time>2022-02-14T12:20:45.734Z</time>
      </trkpt>
      <trkpt lat="43.321214" lon="12.920082">
        <ele>383.007235</ele>
        <time>2022-02-14T12:21:03.953Z</time>
      </trkpt>
      <trkpt lat="43.321301" lon="12.920301">
        <ele>383.442772</ele>
        <time>2022-02-14T12:21:10.802Z</time>
      </trkpt>
      <trkpt lat="43.321219" lon="12.920529">
        <ele>383.886716</ele>
        <time>2022-02-14T12:21:17.144Z</time>
      </trkpt>
      <trkpt lat="43.319933" lon="12.921215">
        <ele>388.928294</ele>
        <time>2022-02-14T12:22:09.836Z</time>
      </trkpt>
      <trkpt lat="43.319648" lon="12.921310">
        <ele>390.098320</ele>
        <time>2022-02-14T12:22:22.658Z</time>
      </trkpt>
      <trkpt lat="43.319122" lon="12.921320">
        <ele>392.538252</ele>
        <time>2022-02-14T12:22:48.002Z</time>
      </trkpt>
      <trkpt lat="43.318592" lon="12.921107">
        <ele>396.459722</ele>
        <time>2022-02-14T12:23:19.054Z</time>
      </trkpt>
      <trkpt lat="43.318426" lon="12.921150">
        <ele>397.659350</ele>
        <time>2022-02-14T12:23:29.178Z</time>
      </trkpt>
      <trkpt lat="43.317953" lon="12.921496">
        <ele>401.464533</ele>
        <time>2022-02-14T12:24:01.798Z</time>
      </trkpt>
      <trkpt lat="43.317505" lon="12.921973">
        <ele>405.157486</ele>
        <time>2022-02-14T12:24:37.907Z</time>
      </trkpt>
      <trkpt lat="43.316822" lon="12.922744">
        <ele>409.257314</ele>
        <time>2022-02-14T12:25:29.070Z</time>
      </trkpt>
      <trkpt lat="43.316705" lon="12.922977">
        <ele>410.212789</ele>
        <time>2022-02-14T12:25:38.630Z</time>
      </trkpt>
      <trkpt lat="43.316156" lon="12.924617">
        <ele>411.085269</ele>
        <time>2022-02-14T12:26:07.488Z</time>
      </trkpt>
      <trkpt lat="43.315997" lon="12.924914">
        <ele>410.435215</ele>
        <time>2022-02-14T12:26:11.980Z</time>
      </trkpt>
      <trkpt lat="43.315773" lon="12.925179">
        <ele>409.719090</ele>
        <time>2022-02-14T12:26:16.887Z</time>
      </trkpt>
      <trkpt lat="43.315368" lon="12.925361">
        <ele>408.686652</ele>
        <time>2022-02-14T12:26:23.865Z</time>
      </trkpt>
      <trkpt lat="43.314790" lon="12.925466">
        <ele>405.918130</ele>
        <time>2022-02-14T12:26:32.996Z</time>
      </trkpt>
      <trkpt lat="43.314150" lon="12.925485">
        <ele>402.676989</ele>
        <time>2022-02-14T12:26:43.251Z</time>
      </trkpt>
      <trkpt lat="43.313840" lon="12.925601">
        <ele>401.050292</ele>
        <time>2022-02-14T12:26:48.445Z</time>
      </trkpt>
      <trkpt lat="43.313510" lon="12.925991">
        <ele>398.698556</ele>
        <time>2022-02-14T12:26:55.204Z</time>
      </trkpt>
      <trkpt lat="43.313364" lon="12.926061">
        <ele>397.710371</ele>
        <time>2022-02-14T12:26:57.604Z</time>
      </trkpt>
      <trkpt lat="43.313246" lon="12.926061">
        <ele>396.956270</ele>
        <time>2022-02-14T12:26:59.429Z</time>
      </trkpt>
      <trkpt lat="43.312793" lon="12.925841">
        <ele>393.885858</ele>
        <time>2022-02-14T12:27:06.599Z</time>
      </trkpt>
      <trkpt lat="43.312616" lon="12.925815">
        <ele>392.748264</ele>
        <time>2022-02-14T12:27:09.228Z</time>
      </trkpt>
      <trkpt lat="43.311816" lon="12.925854">
        <ele>387.698660</ele>
        <time>2022-02-14T12:27:21.426Z</time>
      </trkpt>
      <trkpt lat="43.311681" lon="12.925785">
        <ele>386.992199</ele>
        <time>2022-02-14T12:27:23.684Z</time>
      </trkpt>
      <trkpt lat="43.311586" lon="12.925643">
        <ele>386.303759</ele>
        <time>2022-02-14T12:27:25.769Z</time>
      </trkpt>
      <trkpt lat="43.311281" lon="12.924928">
        <ele>383.345797</ele>
        <time>2022-02-14T12:27:35.325Z</time>
      </trkpt>
      <trkpt lat="43.311162" lon="12.924841">
        <ele>382.684673</ele>
        <time>2022-02-14T12:27:37.429Z</time>
      </trkpt>
      <trkpt lat="43.310565" lon="12.924640">
        <ele>379.669898</ele>
        <time>2022-02-14T12:27:47.828Z</time>
      </trkpt>
      <trkpt lat="43.310492" lon="12.924695">
        <ele>379.261569</ele>
        <time>2022-02-14T12:27:49.179Z</time>
      </trkpt>
      <trkpt lat="43.310459" lon="12.924864">
        <ele>378.588777</ele>
        <time>2022-02-14T12:27:51.361Z</time>
      </trkpt>
      <trkpt lat="43.310854" lon="12.925561">
        <ele>375.103241</ele>
        <time>2022-02-14T12:28:01.614Z</time>
      </trkpt>
      <trkpt lat="43.310886" lon="12.925720">
        <ele>374.452380</ele>
        <time>2022-02-14T12:28:03.410Z</time>
      </trkpt>
      <trkpt lat="43.310825" lon="12.925949">
        <ele>373.490261</ele>
        <time>2022-02-14T12:28:06.140Z</time>
      </trkpt>
      <trkpt lat="43.310378" lon="12.926129">
        <ele>370.964691</ele>
        <time>2022-02-14T12:28:13.229Z</time>
      </trkpt>
      <trkpt lat="43.309621" lon="12.926185">
        <ele>367.137035</ele>
        <time>2022-02-14T12:28:24.989Z</time>
      </trkpt>
      <trkpt lat="43.309390" lon="12.926212">
        <ele>366.022870</ele>
        <time>2022-02-14T12:28:28.610Z</time>
      </trkpt>
      <trkpt lat="43.309181" lon="12.926402">
        <ele>364.818563</ele>
        <time>2022-02-14T12:28:32.446Z</time>
      </trkpt>
      <trkpt lat="43.309118" lon="12.926262">
        <ele>364.242919</ele>
        <time>2022-02-14T12:28:34.455Z</time>
      </trkpt>
      <trkpt lat="43.308970" lon="12.926168">
        <ele>363.459361</ele>
        <time>2022-02-14T12:28:37.093Z</time>
      </trkpt>
      <trkpt lat="43.308579" lon="12.925449">
        <ele>360.600151</ele>
        <time>2022-02-14T12:28:48.379Z</time>
      </trkpt>
      <trkpt lat="43.308970" lon="12.926168">
        <ele>359.783232</ele>
        <time>2022-02-14T12:29:02.610Z</time>
      </trkpt>
      <trkpt lat="43.309118" lon="12.926262">
        <ele>359.579311</ele>
        <time>2022-02-14T12:29:06.441Z</time>
      </trkpt>
      <trkpt lat="43.309181" lon="12.926402">
        <ele>359.429500</ele>
        <time>2022-02-14T12:29:08.938Z</time>
      </trkpt>
      <trkpt lat="43.309062" lon="12.926697">
        <ele>359.122523</ele>
        <time>2022-02-14T12:29:14.381Z</time>
      </trkpt>
      <trkpt lat="43.309025" lon="12.927193">
        <ele>358.668743</ele>
        <time>2022-02-14T12:29:21.718Z</time>
      </trkpt>
      <trkpt lat="43.309043" lon="12.927661">
        <ele>358.071973</ele>
        <time>2022-02-14T12:29:28.255Z</time>
      </trkpt>
      <trkpt lat="43.309220" lon="12.928475">
        <ele>356.662101</ele>
        <time>2022-02-14T12:29:39.612Z</time>
      </trkpt>
      <trkpt lat="43.309548" lon="12.929134">
        <ele>355.337122</ele>
        <time>2022-02-14T12:29:49.865Z</time>
      </trkpt>
      <trkpt lat="43.310507" lon="12.930553">
        <ele>351.551771</ele>
        <time>2022-02-14T12:30:14.109Z</time>
      </trkpt>
      <trkpt lat="43.310749" lon="12.931117">
        <ele>350.185948</ele>
        <time>2022-02-14T12:30:22.331Z</time>
      </trkpt>
      <trkpt lat="43.311480" lon="12.932492">
        <ele>347.233200</ele>
        <time>2022-02-14T12:30:44.578Z</time>
      </trkpt>
      <trkpt lat="43.312066" lon="12.933958">
        <ele>344.355626</ele>
        <time>2022-02-14T12:31:06.951Z</time>
      </trkpt>
      <trkpt lat="43.312438" lon="12.934845">
        <ele>342.224994</ele>
        <time>2022-02-14T12:31:20.099Z</time>
      </trkpt>
      <trkpt lat="43.312817" lon="12.935520">
        <ele>340.450631</ele>
        <time>2022-02-14T12:31:30.738Z</time>
      </trkpt>
      <trkpt lat="43.313452" lon="12.938800">
        <ele>331.489183</ele>
        <time>2022-02-14T12:32:11.179Z</time>
      </trkpt>
      <trkpt lat="43.313706" lon="12.940150">
        <ele>328.974432</ele>
        <time>2022-02-14T12:32:29.347Z</time>
      </trkpt>
      <trkpt lat="43.314038" lon="12.942064">
        <ele>327.744131</ele>
        <time>2022-02-14T12:33:01.059Z</time>
      </trkpt>
      <trkpt lat="43.314035" lon="12.942333">
        <ele>327.638504</ele>
        <time>2022-02-14T12:33:05.607Z</time>
      </trkpt>
      <trkpt lat="43.313971" lon="12.942576">
        <ele>327.537040</ele>
        <time>2022-02-14T12:33:09.515Z</time>
      </trkpt>
      <trkpt lat="43.313827" lon="12.942811">
        <ele>327.406902</ele>
        <time>2022-02-14T12:33:13.974Z</time>
      </trkpt>
      <trkpt lat="43.313671" lon="12.943073">
        <ele>326.724930</ele>
        <time>2022-02-14T12:33:18.732Z</time>
      </trkpt>
      <trkpt lat="43.313722" lon="12.945571">
        <ele>321.472705</ele>
        <time>2022-02-14T12:33:49.847Z</time>
      </trkpt>
      <trkpt lat="43.313648" lon="12.945994">
        <ele>320.340726</ele>
        <time>2022-02-14T12:33:54.974Z</time>
      </trkpt>
      <trkpt lat="43.313223" lon="12.946940">
        <ele>317.447905</ele>
        <time>2022-02-14T12:34:08.365Z</time>
      </trkpt>
      <trkpt lat="43.314872" lon="12.949308">
        <ele>310.285112</ele>
        <time>2022-02-14T12:34:49.801Z</time>
      </trkpt>
      <trkpt lat="43.315065" lon="12.949730">
        <ele>309.356752</ele>
        <time>2022-02-14T12:34:56.111Z</time>
      </trkpt>
      <trkpt lat="43.315223" lon="12.950485">
        <ele>307.893547</ele>
        <time>2022-02-14T12:35:06.225Z</time>
      </trkpt>
      <trkpt lat="43.315332" lon="12.950797">
        <ele>307.248928</ele>
        <time>2022-02-14T12:35:10.746Z</time>
      </trkpt>
      <trkpt lat="43.315535" lon="12.950964">
        <ele>306.643308</ele>
        <time>2022-02-14T12:35:14.909Z</time>
      </trkpt>
      <trkpt lat="43.315690" lon="12.951135">
        <ele>306.136717</ele>
        <time>2022-02-14T12:35:18.648Z</time>
      </trkpt>
      <trkpt lat="43.315787" lon="12.951449">
        <ele>305.589892</ele>
        <time>2022-02-14T12:35:23.152Z</time>
      </trkpt>
      <trkpt lat="43.315910" lon="12.952540">
        <ele>303.820174</ele>
        <time>2022-02-14T12:35:37.473Z</time>
      </trkpt>
      <trkpt lat="43.316044" lon="12.952806">
        <ele>303.301555</ele>
        <time>2022-02-14T12:35:41.598Z</time>
      </trkpt>
      <trkpt lat="43.318300" lon="12.955376">
        <ele>297.896933</ele>
        <time>2022-02-14T12:36:36.384Z</time>
      </trkpt>
      <trkpt lat="43.318483" lon="12.955495">
        <ele>297.519881</ele>
        <time>2022-02-14T12:36:40.185Z</time>
      </trkpt>
      <trkpt lat="43.319128" lon="12.955914">
        <ele>296.191172</ele>
        <time>2022-02-14T12:36:53.474Z</time>
      </trkpt>
      <trkpt lat="43.321111" lon="12.957202">
        <ele>291.463757</ele>
        <time>2022-02-14T12:37:33.219Z</time>
      </trkpt>
      <trkpt lat="43.321456" lon="12.957214">
        <ele>290.572837</ele>
        <time>2022-02-14T12:37:39.361Z</time>
      </trkpt>
      <trkpt lat="43.322751" lon="12.956781">
        <ele>287.125499</ele>
        <time>2022-02-14T12:38:02.864Z</time>
      </trkpt>
      <trkpt lat="43.323241" lon="12.956617">
        <ele>285.622979</ele>
        <time>2022-02-14T12:38:11.619Z</time>
      </trkpt>
      <trkpt lat="43.323464" lon="12.956600">
        <ele>284.957569</ele>
        <time>2022-02-14T12:38:15.506Z</time>
      </trkpt>
      <trkpt lat="43.323640" lon="12.956633">
        <ele>284.428353</ele>
        <time>2022-02-14T12:38:18.560Z</time>
      </trkpt>
      <trkpt lat="43.324371" lon="12.956952">
        <ele>282.143354</ele>
        <time>2022-02-14T12:38:31.787Z</time>
      </trkpt>
      <trkpt lat="43.325175" lon="12.957304">
        <ele>281.323899</ele>
        <time>2022-02-14T12:38:46.193Z</time>
      </trkpt>
      <trkpt lat="43.325079" lon="12.957556">
        <ele>281.184865</ele>
        <time>2022-02-14T12:38:49.919Z</time>
      </trkpt>
      <trkpt lat="43.324692" lon="12.958143">
        <ele>280.797670</ele>
        <time>2022-02-14T12:39:02.420Z</time>
      </trkpt>
      <trkpt lat="43.324585" lon="12.958234">
        <ele>280.713134</ele>
        <time>2022-02-14T12:39:06.735Z</time>
      </trkpt>
      <trkpt lat="43.324702" lon="12.958383">
        <ele>280.647814</ele>
        <time>2022-02-14T12:39:12.708Z</time>
      </trkpt>
      <trkpt lat="43.325073" lon="12.958645">
        <ele>284.463242</ele>
        <time>2022-02-14T12:39:37.276Z</time>
      </trkpt>
      <trkpt lat="43.325197" lon="12.958732">
        <ele>285.736753</ele>
        <time>2022-02-14T12:39:44.237Z</time>
      </trkpt>
      <trkpt lat="43.325248" lon="12.958752">
        <ele>286.221894</ele>
        <time>2022-02-14T12:39:47.278Z</time>
      </trkpt>
      <trkpt lat="43.325247" lon="12.958836">
        <ele>286.780957</ele>
        <time>2022-02-14T12:39:51.891Z</time>
      </trkpt>
      <trkpt lat="43.325265" lon="12.959064">
        <ele>288.307117</ele>
        <time>2022-02-14T12:40:02.715Z</time>
      </trkpt>
      <trkpt lat="43.325242" lon="12.959529">
        <ele>291.408657</ele>
        <time>2022-02-14T12:40:24.949Z</time>
      </trkpt>
      <trkpt lat="43.325134" lon="12.960171">
        <ele>295.793666</ele>
        <time>2022-02-14T12:41:03.341Z</time>
      </trkpt>
      <trkpt lat="43.325019" lon="12.960372">
        <ele>297.735649</ele>
        <time>2022-02-14T12:41:26.653Z</time>
      </trkpt>
      <trkpt lat="43.324615" lon="12.960734">
        <ele>304.593806</ele>
        <time>2022-02-14T12:42:11.743Z</time>
      </trkpt>
      <trkpt lat="43.324486" lon="12.960795">
        <ele>306.533839</ele>
        <time>2022-02-14T12:42:27.132Z</time>
      </trkpt>
      <trkpt lat="43.324202" lon="12.960794">
        <ele>310.572644</ele>
        <time>2022-02-14T12:42:52.601Z</time>
      </trkpt>
      <trkpt lat="43.324105" lon="12.960906">
        <ele>312.374166</ele>
        <time>2022-02-14T12:43:09.308Z</time>
      </trkpt>
      <trkpt lat="43.324292" lon="12.961341">
        <ele>317.601514</ele>
        <time>2022-02-14T12:43:43.010Z</time>
      </trkpt>
      <trkpt lat="43.324323" lon="12.961815">
        <ele>322.525100</ele>
        <time>2022-02-14T12:44:10.948Z</time>
      </trkpt>
      <trkpt lat="43.324269" lon="12.962160">
        <ele>325.184814</ele>
        <time>2022-02-14T12:44:30.435Z</time>
      </trkpt>
      <trkpt lat="43.323917" lon="12.963041">
        <ele>332.667922</ele>
        <time>2022-02-14T12:45:33.705Z</time>
      </trkpt>
      <trkpt lat="43.323905" lon="12.963239">
        <ele>334.147130</ele>
        <time>2022-02-14T12:45:43.721Z</time>
      </trkpt>
      <trkpt lat="43.324011" lon="12.964123">
        <ele>340.817271</ele>
        <time>2022-02-14T12:46:22.594Z</time>
      </trkpt>
      <trkpt lat="43.323846" lon="12.964138">
        <ele>341.426263</ele>
        <time>2022-02-14T12:46:32.671Z</time>
      </trkpt>
      <trkpt lat="43.323441" lon="12.963917">
        <ele>342.580891</ele>
        <time>2022-02-14T12:46:57.537Z</time>
      </trkpt>
      <trkpt lat="43.323268" lon="12.963941">
        <ele>343.041632</ele>
        <time>2022-02-14T12:47:06.921Z</time>
      </trkpt>
      <trkpt lat="43.322767" lon="12.964336">
        <ele>344.572043</ele>
        <time>2022-02-14T12:47:30.535Z</time>
      </trkpt>
      <trkpt lat="43.322027" lon="12.964662">
        <ele>343.676400</ele>
        <time>2022-02-14T12:47:45.313Z</time>
      </trkpt>
      <trkpt lat="43.321860" lon="12.964892">
        <ele>342.038272</ele>
        <time>2022-02-14T12:47:49.524Z</time>
      </trkpt>
      <trkpt lat="43.321806" lon="12.965232">
        <ele>340.283908</ele>
        <time>2022-02-14T12:47:53.930Z</time>
      </trkpt>
      <trkpt lat="43.322026" lon="12.966232">
        <ele>335.017296</ele>
        <time>2022-02-14T12:48:06.474Z</time>
      </trkpt>
      <trkpt lat="43.322162" lon="12.966619">
        <ele>332.639105</ele>
        <time>2022-02-14T12:48:11.511Z</time>
      </trkpt>
      <trkpt lat="43.322225" lon="12.967163">
        <ele>328.686434</ele>
        <time>2022-02-14T12:48:17.826Z</time>
      </trkpt>
      <trkpt lat="43.322503" lon="12.967803">
        <ele>323.337759</ele>
        <time>2022-02-14T12:48:26.290Z</time>
      </trkpt>
      <trkpt lat="43.322775" lon="12.968850">
        <ele>315.441478</ele>
        <time>2022-02-14T12:48:39.557Z</time>
      </trkpt>
      <trkpt lat="43.322758" lon="12.969653">
        <ele>311.551371</ele>
        <time>2022-02-14T12:48:49.314Z</time>
      </trkpt>
      <trkpt lat="43.322114" lon="12.970548">
        <ele>305.455589</ele>
        <time>2022-02-14T12:49:05.188Z</time>
      </trkpt>
      <trkpt lat="43.321974" lon="12.970883">
        <ele>303.591049</ele>
        <time>2022-02-14T12:49:10.166Z</time>
      </trkpt>
      <trkpt lat="43.321676" lon="12.971242">
        <ele>301.266939</ele>
        <time>2022-02-14T12:49:17.253Z</time>
      </trkpt>
      <trkpt lat="43.321599" lon="12.971413">
        <ele>300.408822</ele>
        <time>2022-02-14T12:49:19.893Z</time>
      </trkpt>
      <trkpt lat="43.321870" lon="12.972522">
        <ele>295.416898</ele>
        <time>2022-02-14T12:49:34.789Z</time>
      </trkpt>
      <trkpt lat="43.321975" lon="12.972562">
        <ele>294.777838</ele>
        <time>2022-02-14T12:49:36.640Z</time>
      </trkpt>
      <trkpt lat="43.322790" lon="12.972437">
        <ele>289.489372</ele>
        <time>2022-02-14T12:49:50.718Z</time>
      </trkpt>
      <trkpt lat="43.323538" lon="12.972278">
        <ele>284.369045</ele>
        <time>2022-02-14T12:50:11.260Z</time>
      </trkpt>
      <trkpt lat="43.323634" lon="12.972330">
        <ele>283.671007</ele>
        <time>2022-02-14T12:50:14.138Z</time>
      </trkpt>
      <trkpt lat="43.323747" lon="12.972632">
        <ele>281.999670</ele>
        <time>2022-02-14T12:50:20.834Z</time>
      </trkpt>
      <trkpt lat="43.323819" lon="12.972825">
        <ele>280.932231</ele>
        <time>2022-02-14T12:50:23.395Z</time>
      </trkpt>
      <trkpt lat="43.323919" lon="12.973038">
        <ele>279.829232</ele>
        <time>2022-02-14T12:50:28.465Z</time>
      </trkpt>
      <trkpt lat="43.324313" lon="12.974722">
        <ele>272.142049</ele>
        <time>2022-02-14T12:51:04.479Z</time>
      </trkpt>
      <trkpt lat="43.324657" lon="12.975105">
        <ele>269.660378</ele>
        <time>2022-02-14T12:51:17.007Z</time>
      </trkpt>
      <trkpt lat="43.324692" lon="12.975205">
        <ele>269.293737</ele>
        <time>2022-02-14T12:51:19.237Z</time>
      </trkpt>
      <trkpt lat="43.324748" lon="12.975361">
        <ele>268.718992</ele>
        <time>2022-02-14T12:51:23.054Z</time>
      </trkpt>
      <trkpt lat="43.324572" lon="12.975570">
        <ele>267.662710</ele>
        <time>2022-02-14T12:51:26.672Z</time>
      </trkpt>
      <trkpt lat="43.324361" lon="12.976093">
        <ele>265.686824</ele>
        <time>2022-02-14T12:51:33.709Z</time>
      </trkpt>
      <trkpt lat="43.324122" lon="12.977197">
        <ele>261.928906</ele>
        <time>2022-02-14T12:51:47.410Z</time>
      </trkpt>
      <trkpt lat="43.323752" lon="12.978608">
        <ele>258.842869</ele>
        <time>2022-02-14T12:52:06.264Z</time>
      </trkpt>
      <trkpt lat="43.323286" lon="12.980156">
        <ele>256.339237</ele>
        <time>2022-02-14T12:52:28.319Z</time>
      </trkpt>
      <trkpt lat="43.323125" lon="12.980346">
        <ele>256.110416</ele>
        <time>2022-02-14T12:52:32.244Z</time>
      </trkpt>
      <trkpt lat="43.322958" lon="12.980440">
        <ele>255.915817</ele>
        <time>2022-02-14T12:52:35.768Z</time>
      </trkpt>
      <trkpt lat="43.322820" lon="12.980518">
        <ele>255.754914</ele>
        <time>2022-02-14T12:52:38.552Z</time>
      </trkpt>
      <trkpt lat="43.322081" lon="12.980779">
        <ele>255.154321</ele>
        <time>2022-02-14T12:52:54.515Z</time>
      </trkpt>
      <trkpt lat="43.321924" lon="12.980743">
        <ele>255.762998</ele>
        <time>2022-02-14T12:52:59.115Z</time>
      </trkpt>
      <trkpt lat="43.321813" lon="12.980645">
        <ele>256.267488</ele>
        <time>2022-02-14T12:53:03.029Z</time>
      </trkpt>
      <trkpt lat="43.321667" lon="12.980564">
        <ele>256.869565</ele>
        <time>2022-02-14T12:53:08.516Z</time>
      </trkpt>
      <trkpt lat="43.321555" lon="12.980637">
        <ele>257.343573</ele>
        <time>2022-02-14T12:53:13.273Z</time>
      </trkpt>
      <trkpt lat="43.321508" lon="12.980818">
        <ele>257.878242</ele>
        <time>2022-02-14T12:53:18.856Z</time>
      </trkpt>
      <trkpt lat="43.321512" lon="12.980856">
        <ele>257.985062</ele>
        <time>2022-02-14T12:53:20.035Z</time>
      </trkpt>
      <trkpt lat="43.321594" lon="12.981450">
        <ele>259.667100</ele>
        <time>2022-02-14T12:53:40.268Z</time>
      </trkpt>
      <trkpt lat="43.321629" lon="12.981731">
        <ele>260.460236</ele>
        <time>2022-02-14T12:53:50.446Z</time>
      </trkpt>
      <trkpt lat="43.321682" lon="12.982157">
        <ele>261.662601</ele>
        <time>2022-02-14T12:54:06.919Z</time>
      </trkpt>
      <trkpt lat="43.321677" lon="12.982273">
        <ele>262.046162</ele>
        <time>2022-02-14T12:54:11.499Z</time>
      </trkpt>
      <trkpt lat="43.321488" lon="12.982966">
        <ele>265.084389</ele>
        <time>2022-02-14T12:54:41.749Z</time>
      </trkpt>
      <trkpt lat="43.320838" lon="12.984302">
        <ele>271.682363</ele>
        <time>2022-02-14T12:55:41.448Z</time>
      </trkpt>
      <trkpt lat="43.320621" lon="12.984794">
        <ele>273.021209</ele>
        <time>2022-02-14T12:55:58.830Z</time>
      </trkpt>
      <trkpt lat="43.320621" lon="12.984794">
        <ele>273.021209</ele>
        <time>2022-02-14T12:55:58.867Z</time>
      </trkpt>
      <trkpt lat="43.320621" lon="12.984794">
        <ele>273.021209</ele>
        <time>2022-02-14T12:55:58.867Z</time>
      </trkpt>
      <trkpt lat="43.320615" lon="12.984789">
        <ele>273.040905</ele>
        <time>2022-02-14T12:55:59.049Z</time>
      </trkpt>
      <trkpt lat="43.320978" lon="12.985555">
        <ele>274.907793</ele>
        <time>2022-02-14T12:56:16.256Z</time>
      </trkpt>
      <trkpt lat="43.320625" lon="12.985485">
        <ele>275.908924</ele>
        <time>2022-02-14T12:56:27.987Z</time>
      </trkpt>
      <trkpt lat="43.320431" lon="12.985509">
        <ele>276.455685</ele>
        <time>2022-02-14T12:56:33.510Z</time>
      </trkpt>
      <trkpt lat="43.320225" lon="12.985564">
        <ele>277.044736</ele>
        <time>2022-02-14T12:56:40.059Z</time>
      </trkpt>
      <trkpt lat="43.319971" lon="12.985428">
        <ele>277.257736</ele>
        <time>2022-02-14T12:56:47.866Z</time>
      </trkpt>
      <trkpt lat="43.319692" lon="12.984647">
        <ele>277.731013</ele>
        <time>2022-02-14T12:57:06.714Z</time>
      </trkpt>
      <trkpt lat="43.319368" lon="12.983998">
        <ele>278.159161</ele>
        <time>2022-02-14T12:57:21.587Z</time>
      </trkpt>
      <trkpt lat="43.318462" lon="12.983069">
        <ele>277.643078</ele>
        <time>2022-02-14T12:57:46.765Z</time>
      </trkpt>
      <trkpt lat="43.317847" lon="12.982523">
        <ele>276.953206</ele>
        <time>2022-02-14T12:58:01.474Z</time>
      </trkpt>
      <trkpt lat="43.317160" lon="12.982228">
        <ele>276.133490</ele>
        <time>2022-02-14T12:58:15.430Z</time>
      </trkpt>
      <trkpt lat="43.316545" lon="12.982063">
        <ele>275.349740</ele>
        <time>2022-02-14T12:58:28.151Z</time>
      </trkpt>
      <trkpt lat="43.316141" lon="12.982089">
        <ele>274.843870</ele>
        <time>2022-02-14T12:58:36.560Z</time>
      </trkpt>
      <trkpt lat="43.315780" lon="12.982144">
        <ele>274.400323</ele>
        <time>2022-02-14T12:58:44.479Z</time>
      </trkpt>
      <trkpt lat="43.315271" lon="12.982442">
        <ele>273.817800</ele>
        <time>2022-02-14T12:58:55.915Z</time>
      </trkpt>
      <trkpt lat="43.315105" lon="12.982485">
        <ele>273.639941</ele>
        <time>2022-02-14T12:58:59.198Z</time>
      </trkpt>
      <trkpt lat="43.314511" lon="12.982335">
        <ele>273.004049</ele>
        <time>2022-02-14T12:59:12.123Z</time>
      </trkpt>
      <trkpt lat="43.314402" lon="12.982282">
        <ele>272.882312</ele>
        <time>2022-02-14T12:59:14.550Z</time>
      </trkpt>
      <trkpt lat="43.314267" lon="12.982105">
        <ele>272.685866</ele>
        <time>2022-02-14T12:59:18.574Z</time>
      </trkpt>
      <trkpt lat="43.314252" lon="12.981890">
        <ele>272.504809</ele>
        <time>2022-02-14T12:59:21.595Z</time>
      </trkpt>
      <trkpt lat="43.313065" lon="12.980746">
        <ele>270.429213</ele>
        <time>2022-02-14T12:59:50.162Z</time>
      </trkpt>
      <trkpt lat="43.312768" lon="12.980681">
        <ele>269.998649</ele>
        <time>2022-02-14T12:59:56.300Z</time>
      </trkpt>
      <trkpt lat="43.312308" lon="12.980928">
        <ele>269.547756</ele>
        <time>2022-02-14T13:00:06.679Z</time>
      </trkpt>
      <trkpt lat="43.312041" lon="12.980981">
        <ele>269.303460</ele>
        <time>2022-02-14T13:00:12.391Z</time>
      </trkpt>
      <trkpt lat="43.311721" lon="12.980788">
        <ele>268.987001</ele>
        <time>2022-02-14T13:00:19.841Z</time>
      </trkpt>
      <trkpt lat="43.311371" lon="12.980220">
        <ele>268.496558</ele>
        <time>2022-02-14T13:00:31.414Z</time>
      </trkpt>
      <trkpt lat="43.310882" lon="12.979957">
        <ele>267.956267</ele>
        <time>2022-02-14T13:00:42.252Z</time>
      </trkpt>
      <trkpt lat="43.309727" lon="12.978585">
        <ele>266.409150</ele>
        <time>2022-02-14T13:01:13.458Z</time>
      </trkpt>
      <trkpt lat="43.309434" lon="12.978507">
        <ele>266.378156</ele>
        <time>2022-02-14T13:01:19.850Z</time>
      </trkpt>
      <trkpt lat="43.309428" lon="12.978337">
        <ele>266.365294</ele>
        <time>2022-02-14T13:01:22.507Z</time>
      </trkpt>
      <trkpt lat="43.309427" lon="12.977967">
        <ele>266.337333</ele>
        <time>2022-02-14T13:01:28.523Z</time>
      </trkpt>
      <trkpt lat="43.308537" lon="12.977669">
        <ele>266.242199</ele>
        <time>2022-02-14T13:01:50.579Z</time>
      </trkpt>
      <trkpt lat="43.308429" lon="12.977512">
        <ele>266.319581</ele>
        <time>2022-02-14T13:01:55.029Z</time>
      </trkpt>
      <trkpt lat="43.308373" lon="12.977536">
        <ele>266.393933</ele>
        <time>2022-02-14T13:01:56.556Z</time>
      </trkpt>
      <trkpt lat="43.308059" lon="12.977592">
        <ele>266.795266</ele>
        <time>2022-02-14T13:02:05.564Z</time>
      </trkpt>
      <trkpt lat="43.307454" lon="12.977977">
        <ele>267.640332</ele>
        <time>2022-02-14T13:02:25.007Z</time>
      </trkpt>
      <trkpt lat="43.307123" lon="12.978126">
        <ele>268.081811</ele>
        <time>2022-02-14T13:02:35.816Z</time>
      </trkpt>
      <trkpt lat="43.306318" lon="12.978083">
        <ele>269.452707</ele>
        <time>2022-02-14T13:03:01.699Z</time>
      </trkpt>
      <trkpt lat="43.305932" lon="12.978224">
        <ele>270.259000</ele>
        <time>2022-02-14T13:03:14.908Z</time>
      </trkpt>
      <trkpt lat="43.305604" lon="12.978449">
        <ele>270.999062</ele>
        <time>2022-02-14T13:03:28.242Z</time>
      </trkpt>
      <trkpt lat="43.305210" lon="12.978619">
        <ele>271.832730</ele>
        <time>2022-02-14T13:03:42.615Z</time>
      </trkpt>
      <trkpt lat="43.304429" lon="12.978619">
        <ele>272.666668</ele>
        <time>2022-02-14T13:04:06.176Z</time>
      </trkpt>
      <trkpt lat="43.304148" lon="12.978543">
        <ele>272.905545</ele>
        <time>2022-02-14T13:04:14.321Z</time>
      </trkpt>
      <trkpt lat="43.303719" lon="12.979102">
        <ele>273.398667</ele>
        <time>2022-02-14T13:04:29.069Z</time>
      </trkpt>
      <trkpt lat="43.302922" lon="12.979434">
        <ele>273.547404</ele>
        <time>2022-02-14T13:04:48.739Z</time>
      </trkpt>
      <trkpt lat="43.302138" lon="12.979844">
        <ele>273.397019</ele>
        <time>2022-02-14T13:05:06.825Z</time>
      </trkpt>
      <trkpt lat="43.301048" lon="12.980529">
        <ele>273.819135</ele>
        <time>2022-02-14T13:05:35.406Z</time>
      </trkpt>
      <trkpt lat="43.300329" lon="12.981125">
        <ele>274.356539</ele>
        <time>2022-02-14T13:05:58.368Z</time>
      </trkpt>
      <trkpt lat="43.300330" lon="12.981170">
        <ele>274.377508</ele>
        <time>2022-02-14T13:05:59.263Z</time>
      </trkpt>
      <trkpt lat="43.300333" lon="12.981259">
        <ele>274.419006</ele>
        <time>2022-02-14T13:06:00.987Z</time>
      </trkpt>
      <trkpt lat="43.300333" lon="12.981293">
        <ele>274.434842</ele>
        <time>2022-02-14T13:06:01.722Z</time>
      </trkpt>
      <trkpt lat="43.299965" lon="12.981310">
        <ele>275.271452</ele>
        <time>2022-02-14T13:06:18.123Z</time>
      </trkpt>
      <trkpt lat="43.299707" lon="12.981420">
        <ele>275.969492</ele>
        <time>2022-02-14T13:06:30.949Z</time>
      </trkpt>
      <trkpt lat="43.299499" lon="12.981614">
        <ele>276.619102</ele>
        <time>2022-02-14T13:06:43.276Z</time>
      </trkpt>
      <trkpt lat="43.299182" lon="12.981572">
        <ele>277.442042</ele>
        <time>2022-02-14T13:06:59.569Z</time>
      </trkpt>
      <trkpt lat="43.298593" lon="12.981851">
        <ele>279.051947</ele>
        <time>2022-02-14T13:07:33.621Z</time>
      </trkpt>
      <trkpt lat="43.297429" lon="12.982001">
        <ele>283.125280</ele>
        <time>2022-02-14T13:08:37.817Z</time>
      </trkpt>
      <trkpt lat="43.296766" lon="12.981958">
        <ele>285.446809</ele>
        <time>2022-02-14T13:09:13.943Z</time>
      </trkpt>
      <trkpt lat="43.296613" lon="12.982149">
        <ele>286.040359</ele>
        <time>2022-02-14T13:09:25.086Z</time>
      </trkpt>
      <trkpt lat="43.296602" lon="12.982698">
        <ele>287.188064</ele>
        <time>2022-02-14T13:09:46.420Z</time>
      </trkpt>
      <trkpt lat="43.296094" lon="12.982776">
        <ele>288.655747</ele>
        <time>2022-02-14T13:10:12.715Z</time>
      </trkpt>
      <trkpt lat="43.295969" lon="12.982795">
        <ele>289.016845</ele>
        <time>2022-02-14T13:10:19.203Z</time>
      </trkpt>
      <trkpt lat="43.294973" lon="12.983468">
        <ele>291.597227</ele>
        <time>2022-02-14T13:11:13.700Z</time>
      </trkpt>
      <trkpt lat="43.295736" lon="12.984818">
        <ele>293.817343</ele>
        <time>2022-02-14T13:12:10.286Z</time>
      </trkpt>
      <trkpt lat="43.288475" lon="12.990698">
        <ele>297.270284</ele>
        <time>2022-02-14T13:17:41.678Z</time>
      </trkpt>
      <trkpt lat="43.288270" lon="12.991012">
        <ele>297.252994</ele>
        <time>2022-02-14T13:17:51.913Z</time>
      </trkpt>
      <trkpt lat="43.288070" lon="12.991687">
        <ele>297.379020</ele>
        <time>2022-02-14T13:18:09.961Z</time>
      </trkpt>
      <trkpt lat="43.287936" lon="12.992399">
        <ele>297.646374</ele>
        <time>2022-02-14T13:18:31.264Z</time>
      </trkpt>
      <trkpt lat="43.287666" lon="12.992926">
        <ele>297.880659</ele>
        <time>2022-02-14T13:18:50.008Z</time>
      </trkpt>
      <trkpt lat="43.287529" lon="12.993177">
        <ele>297.994712</ele>
        <time>2022-02-14T13:18:56.765Z</time>
      </trkpt>
      <trkpt lat="43.287394" lon="12.993403">
        <ele>298.100997</ele>
        <time>2022-02-14T13:19:02.817Z</time>
      </trkpt>
      <trkpt lat="43.287254" lon="12.993798">
        <ele>298.755549</ele>
        <time>2022-02-14T13:19:12.989Z</time>
      </trkpt>
      <trkpt lat="43.287278" lon="12.994232">
        <ele>299.547774</ele>
        <time>2022-02-14T13:19:23.407Z</time>
      </trkpt>
      <trkpt lat="43.287242" lon="12.994886">
        <ele>300.741556</ele>
        <time>2022-02-14T13:19:41.690Z</time>
      </trkpt>
      <trkpt lat="43.287453" lon="12.995494">
        <ele>301.967544</ele>
        <time>2022-02-14T13:20:02.047Z</time>
      </trkpt>
      <trkpt lat="43.287472" lon="12.995754">
        <ele>302.443162</ele>
        <time>2022-02-14T13:20:09.918Z</time>
      </trkpt>
      <trkpt lat="43.287000" lon="12.996360">
        <ele>303.147530</ele>
        <time>2022-02-14T13:20:30.114Z</time>
      </trkpt>
      <trkpt lat="43.286487" lon="12.996944">
        <ele>303.747560</ele>
        <time>2022-02-14T13:20:48.026Z</time>
      </trkpt>
      <trkpt lat="43.286389" lon="12.997117">
        <ele>303.891272</ele>
        <time>2022-02-14T13:20:52.152Z</time>
      </trkpt>
      <trkpt lat="43.286306" lon="12.997248">
        <ele>304.005128</ele>
        <time>2022-02-14T13:20:54.890Z</time>
      </trkpt>
      <trkpt lat="43.285828" lon="12.997712">
        <ele>304.133242</ele>
        <time>2022-02-14T13:21:07.143Z</time>
      </trkpt>
      <trkpt lat="43.284649" lon="12.998476">
        <ele>303.620399</ele>
        <time>2022-02-14T13:21:33.487Z</time>
      </trkpt>
      <trkpt lat="43.283536" lon="12.999216">
        <ele>305.071645</ele>
        <time>2022-02-14T13:22:05.508Z</time>
      </trkpt>
      <trkpt lat="43.283279" lon="12.999396">
        <ele>305.490619</ele>
        <time>2022-02-14T13:22:15.042Z</time>
      </trkpt>
      <trkpt lat="43.281196" lon="13.000848">
        <ele>311.473476</ele>
        <time>2022-02-14T13:23:42.546Z</time>
      </trkpt>
      <trkpt lat="43.278715" lon="13.002622">
        <ele>316.644990</ele>
        <time>2022-02-14T13:25:09.521Z</time>
      </trkpt>
      <trkpt lat="43.277965" lon="13.003002">
        <ele>318.019975</ele>
        <time>2022-02-14T13:25:33.087Z</time>
      </trkpt>
      <trkpt lat="43.277111" lon="13.003076">
        <ele>319.649330</ele>
        <time>2022-02-14T13:26:00.517Z</time>
      </trkpt>
      <trkpt lat="43.276671" lon="13.002942">
        <ele>320.507492</ele>
        <time>2022-02-14T13:26:15.197Z</time>
      </trkpt>
      <trkpt lat="43.276546" lon="13.002828">
        <ele>320.793198</ele>
        <time>2022-02-14T13:26:19.839Z</time>
      </trkpt>
      <trkpt lat="43.276446" lon="13.002840">
        <ele>320.984335</ele>
        <time>2022-02-14T13:26:22.870Z</time>
      </trkpt>
      <trkpt lat="43.276322" lon="13.003062">
        <ele>321.366476</ele>
        <time>2022-02-14T13:26:29.514Z</time>
      </trkpt>
      <trkpt lat="43.276323" lon="13.003128">
        <ele>321.450684</ele>
        <time>2022-02-14T13:26:30.903Z</time>
      </trkpt>
      <trkpt lat="43.276180" lon="13.003443">
        <ele>321.924212</ele>
        <time>2022-02-14T13:26:39.804Z</time>
      </trkpt>
      <trkpt lat="43.276006" lon="13.003628">
        <ele>322.309736</ele>
        <time>2022-02-14T13:26:46.787Z</time>
      </trkpt>
      <trkpt lat="43.275914" lon="13.003727">
        <ele>322.514505</ele>
        <time>2022-02-14T13:26:50.970Z</time>
      </trkpt>
      <trkpt lat="43.275709" lon="13.003856">
        <ele>322.909579</ele>
        <time>2022-02-14T13:26:58.359Z</time>
      </trkpt>
      <trkpt lat="43.272686" lon="13.005140">
        <ele>327.767621</ele>
        <time>2022-02-14T13:28:30.974Z</time>
      </trkpt>
      <trkpt lat="43.272316" lon="13.005328">
        <ele>328.389621</ele>
        <time>2022-02-14T13:28:42.253Z</time>
      </trkpt>
      <trkpt lat="43.272198" lon="13.005391">
        <ele>328.589228</ele>
        <time>2022-02-14T13:28:45.801Z</time>
      </trkpt>
      <trkpt lat="43.272046" lon="13.005471">
        <ele>328.845872</ele>
        <time>2022-02-14T13:28:50.643Z</time>
      </trkpt>
      <trkpt lat="43.269786" lon="13.006519">
        <ele>333.500117</ele>
        <time>2022-02-14T13:30:08.626Z</time>
      </trkpt>
      <trkpt lat="43.268001" lon="13.007246">
        <ele>337.229153</ele>
        <time>2022-02-14T13:31:09.540Z</time>
      </trkpt>
      <trkpt lat="43.267834" lon="13.007314">
        <ele>337.430763</ele>
        <time>2022-02-14T13:31:14.582Z</time>
      </trkpt>
      <trkpt lat="43.267659" lon="13.007380">
        <ele>337.640815</ele>
        <time>2022-02-14T13:31:19.801Z</time>
      </trkpt>
      <trkpt lat="43.267057" lon="13.007594">
        <ele>338.360562</ele>
        <time>2022-02-14T13:31:37.463Z</time>
      </trkpt>
      <trkpt lat="43.266761" lon="13.007699">
        <ele>338.714411</ele>
        <time>2022-02-14T13:31:45.847Z</time>
      </trkpt>
      <trkpt lat="43.266658" lon="13.007736">
        <ele>338.837639</ele>
        <time>2022-02-14T13:31:48.759Z</time>
      </trkpt>
      <trkpt lat="43.266187" lon="13.007910">
        <ele>339.266360</ele>
        <time>2022-02-14T13:32:01.161Z</time>
      </trkpt>
      <trkpt lat="43.265613" lon="13.008120">
        <ele>339.143024</ele>
        <time>2022-02-14T13:32:15.727Z</time>
      </trkpt>
      <trkpt lat="43.265004" lon="13.008347">
        <ele>339.012002</ele>
        <time>2022-02-14T13:32:29.712Z</time>
      </trkpt>
      <trkpt lat="43.264928" lon="13.008268">
        <ele>338.992211</ele>
        <time>2022-02-14T13:32:31.640Z</time>
      </trkpt>
      <trkpt lat="43.264635" lon="13.008250">
        <ele>338.931315</ele>
        <time>2022-02-14T13:32:37.575Z</time>
      </trkpt>
      <trkpt lat="43.264251" lon="13.008223">
        <ele>338.299096</ele>
        <time>2022-02-14T13:32:44.850Z</time>
      </trkpt>
      <trkpt lat="43.263095" lon="13.008142">
        <ele>335.920479</ele>
        <time>2022-02-14T13:33:05.263Z</time>
      </trkpt>
      <trkpt lat="43.262689" lon="13.008114">
        <ele>335.289187</ele>
        <time>2022-02-14T13:33:12.695Z</time>
      </trkpt>
      <trkpt lat="43.262609" lon="13.008109">
        <ele>335.378421</ele>
        <time>2022-02-14T13:33:14.192Z</time>
      </trkpt>
      <trkpt lat="43.262021" lon="13.008090">
        <ele>336.033795</ele>
        <time>2022-02-14T13:33:25.694Z</time>
      </trkpt>
      <trkpt lat="43.260192" lon="13.007994">
        <ele>341.059555</ele>
        <time>2022-02-14T13:34:33.893Z</time>
      </trkpt>
      <trkpt lat="43.259951" lon="13.008014">
        <ele>342.271900</ele>
        <time>2022-02-14T13:34:46.886Z</time>
      </trkpt>
      <trkpt lat="43.259394" lon="13.008045">
        <ele>345.071070</ele>
        <time>2022-02-14T13:35:18.414Z</time>
      </trkpt>
      <trkpt lat="43.259055" lon="13.008140">
        <ele>346.766838</ele>
        <time>2022-02-14T13:35:37.483Z</time>
      </trkpt>
      <trkpt lat="43.258430" lon="13.008941">
        <ele>350.738506</ele>
        <time>2022-02-14T13:36:21.446Z</time>
      </trkpt>
      <trkpt lat="43.257722" lon="13.008943">
        <ele>354.027586</ele>
        <time>2022-02-14T13:36:49.772Z</time>
      </trkpt>
      <trkpt lat="43.257706" lon="13.008937">
        <ele>354.104637</ele>
        <time>2022-02-14T13:36:50.393Z</time>
      </trkpt>
      <trkpt lat="43.257236" lon="13.008931">
        <ele>354.998506</ele>
        <time>2022-02-14T13:37:06.330Z</time>
      </trkpt>
      <trkpt lat="43.257236" lon="13.008931">
        <ele>354.998506</ele>
        <time>2022-02-14T13:37:06.332Z</time>
      </trkpt>
      <trkpt lat="43.257236" lon="13.008926">
        <ele>355.002431</ele>
        <time>2022-02-14T13:37:06.426Z</time>
      </trkpt>
      <trkpt lat="43.256773" lon="13.008863">
        <ele>355.503890</ele>
        <time>2022-02-14T13:37:18.453Z</time>
      </trkpt>
      <trkpt lat="43.256773" lon="13.008863">
        <ele>355.503890</ele>
        <time>2022-02-14T13:37:18.566Z</time>
      </trkpt>
      <trkpt lat="43.256514" lon="13.008749">
        <ele>355.797028</ele>
        <time>2022-02-14T13:37:26.914Z</time>
      </trkpt>
      <trkpt lat="43.256187" lon="13.008713">
        <ele>356.150594</ele>
        <time>2022-02-14T13:37:37.043Z</time>
      </trkpt>
      <trkpt lat="43.255350" lon="13.008505">
        <ele>356.713510</ele>
        <time>2022-02-14T13:38:03.348Z</time>
      </trkpt>
      <trkpt lat="43.254661" lon="13.008294">
        <ele>356.956505</ele>
        <time>2022-02-14T13:38:25.662Z</time>
      </trkpt>
      <trkpt lat="43.254534" lon="13.008265">
        <ele>357.000821</ele>
        <time>2022-02-14T13:38:29.650Z</time>
      </trkpt>
      <trkpt lat="43.254406" lon="13.008237">
        <ele>357.045437</ele>
        <time>2022-02-14T13:38:33.328Z</time>
      </trkpt>
      <trkpt lat="43.254256" lon="13.008198">
        <ele>357.097987</ele>
        <time>2022-02-14T13:38:38.127Z</time>
      </trkpt>
      <trkpt lat="43.254069" lon="13.008150">
        <ele>357.163471</ele>
        <time>2022-02-14T13:38:43.658Z</time>
      </trkpt>
      <trkpt lat="43.253686" lon="13.008053">
        <ele>357.166599</ele>
        <time>2022-02-14T13:38:55.630Z</time>
      </trkpt>
      <trkpt lat="43.253652" lon="13.008061">
        <ele>357.166599</ele>
        <time>2022-02-14T13:38:56.502Z</time>
      </trkpt>
      <trkpt lat="43.253124" lon="13.008189">
        <ele>357.166599</ele>
        <time>2022-02-14T13:39:09.238Z</time>
      </trkpt>
      <trkpt lat="43.253071" lon="13.008201">
        <ele>357.166599</ele>
        <time>2022-02-14T13:39:10.537Z</time>
      </trkpt>
      <trkpt lat="43.253071" lon="13.008201">
        <ele>357.166599</ele>
        <time>2022-02-14T13:39:10.558Z</time>
      </trkpt>
      <trkpt lat="43.252952" lon="13.008417">
        <ele>357.166599</ele>
        <time>2022-02-14T13:39:15.659Z</time>
      </trkpt>
    </trkseg>
  </trk>
</gpx>